<?xml version="1.0" encoding="utf-8"?>
<gpx xmlns:xsi="http://www.w3.org/2001/XMLSchema-instance" xmlns:xsd="http://www.w3.org/2001/XMLSchema" version="1.1" creator="Shapelink.com" xmlns="http://www.topografix.com/GPX/1/1" xmlns:gpxtpx="http://www.garmin.com/xmlschemas/TrackPointExtension/v1">
  <metadata>
    <name>Cykling 68.01 km, 2011-08-14</name>
    <desc></desc>
    <author><name>Alexander Engvall</name></author> 
    <time>2011-08-14T09:19:12Z</time>
  </metadata>
  <trk>
    <name>Cykling 68.01 km, 2011-08-14</name>
    <trkseg>
      <trkpt lat="59.4574876" lon="17.8059627">
        <ele>25.6123</ele>
        <time>2011-08-14T09:19:12Z</time>
      </trkpt>
      <trkpt lat="59.4578465" lon="17.8061314">
        <ele>26.0929</ele>
        <time>2011-08-14T09:19:18Z</time>
      </trkpt>
      <trkpt lat="59.4582662" lon="17.8063113">
        <ele>27.0543</ele>
        <time>2011-08-14T09:19:25Z</time>
      </trkpt>
      <trkpt lat="59.4588018" lon="17.806469">
        <ele>30.8995</ele>
        <time>2011-08-14T09:19:34Z</time>
      </trkpt>
      <trkpt lat="59.4592068" lon="17.8065593">
        <ele>31.3801</ele>
        <time>2011-08-14T09:19:41Z</time>
      </trkpt>
      <trkpt lat="59.459701" lon="17.8066489">
        <ele>30.8995</ele>
        <time>2011-08-14T09:19:49Z</time>
      </trkpt>
      <trkpt lat="59.4602992" lon="17.8067293">
        <ele>28.0155</ele>
        <time>2011-08-14T09:19:58Z</time>
      </trkpt>
      <trkpt lat="59.4608028" lon="17.8067578">
        <ele>27.5349</ele>
        <time>2011-08-14T09:20:05Z</time>
      </trkpt>
      <trkpt lat="59.4613988" lon="17.806736">
        <ele>32.3416</ele>
        <time>2011-08-14T09:20:13Z</time>
      </trkpt>
      <trkpt lat="59.46147" lon="17.8067349">
        <ele>33.7834</ele>
        <time>2011-08-14T09:20:14Z</time>
      </trkpt>
      <trkpt lat="59.4616441" lon="17.8069119">
        <ele>37.6287</ele>
        <time>2011-08-14T09:20:17Z</time>
      </trkpt>
      <trkpt lat="59.4618628" lon="17.8069944">
        <ele>35.7061</ele>
        <time>2011-08-14T09:20:21Z</time>
      </trkpt>
      <trkpt lat="59.4622787" lon="17.806908">
        <ele>33.7834</ele>
        <time>2011-08-14T09:20:27Z</time>
      </trkpt>
      <trkpt lat="59.4626473" lon="17.8067671">
        <ele>31.8607</ele>
        <time>2011-08-14T09:20:32Z</time>
      </trkpt>
      <trkpt lat="59.4629085" lon="17.8068515">
        <ele>31.3801</ele>
        <time>2011-08-14T09:20:36Z</time>
      </trkpt>
      <trkpt lat="59.4629617" lon="17.8069332">
        <ele>30.8995</ele>
        <time>2011-08-14T09:20:37Z</time>
      </trkpt>
      <trkpt lat="59.4632565" lon="17.807411">
        <ele>34.2642</ele>
        <time>2011-08-14T09:20:42Z</time>
      </trkpt>
      <trkpt lat="59.463553" lon="17.807741">
        <ele>32.8223</ele>
        <time>2011-08-14T09:20:47Z</time>
      </trkpt>
      <trkpt lat="59.4636687" lon="17.8078245">
        <ele>31.8607</ele>
        <time>2011-08-14T09:20:49Z</time>
      </trkpt>
      <trkpt lat="59.4639928" lon="17.8081207">
        <ele>30.4188</ele>
        <time>2011-08-14T09:20:55Z</time>
      </trkpt>
      <trkpt lat="59.4643403" lon="17.8084034">
        <ele>28.9769</ele>
        <time>2011-08-14T09:21:02Z</time>
      </trkpt>
      <trkpt lat="59.4644387" lon="17.8084828">
        <ele>29.4575</ele>
        <time>2011-08-14T09:21:04Z</time>
      </trkpt>
      <trkpt lat="59.4646012" lon="17.8085069">
        <ele>28.9769</ele>
        <time>2011-08-14T09:21:08Z</time>
      </trkpt>
      <trkpt lat="59.4647967" lon="17.8084515">
        <ele>28.9769</ele>
        <time>2011-08-14T09:21:13Z</time>
      </trkpt>
      <trkpt lat="59.4650198" lon="17.8085093">
        <ele>28.0155</ele>
        <time>2011-08-14T09:21:18Z</time>
      </trkpt>
      <trkpt lat="59.4651121" lon="17.8086247">
        <ele>28.4962</ele>
        <time>2011-08-14T09:21:20Z</time>
      </trkpt>
      <trkpt lat="59.4654504" lon="17.8088614">
        <ele>29.4575</ele>
        <time>2011-08-14T09:21:26Z</time>
      </trkpt>
      <trkpt lat="59.4657486" lon="17.8089075">
        <ele>30.4188</ele>
        <time>2011-08-14T09:21:31Z</time>
      </trkpt>
      <trkpt lat="59.4660595" lon="17.8090427">
        <ele>31.3801</ele>
        <time>2011-08-14T09:21:36Z</time>
      </trkpt>
      <trkpt lat="59.4663529" lon="17.8090923">
        <ele>32.8223</ele>
        <time>2011-08-14T09:21:40Z</time>
      </trkpt>
      <trkpt lat="59.4666119" lon="17.8090568">
        <ele>33.7834</ele>
        <time>2011-08-14T09:21:43Z</time>
      </trkpt>
      <trkpt lat="59.4669085" lon="17.8088028">
        <ele>34.7449</ele>
        <time>2011-08-14T09:21:47Z</time>
      </trkpt>
      <trkpt lat="59.4673086" lon="17.8083091">
        <ele>31.3801</ele>
        <time>2011-08-14T09:21:52Z</time>
      </trkpt>
      <trkpt lat="59.467468" lon="17.8080909">
        <ele>28.4962</ele>
        <time>2011-08-14T09:21:54Z</time>
      </trkpt>
      <trkpt lat="59.4677446" lon="17.8078305">
        <ele>26.5736</ele>
        <time>2011-08-14T09:21:58Z</time>
      </trkpt>
      <trkpt lat="59.4683322" lon="17.8074966">
        <ele>24.651</ele>
        <time>2011-08-14T09:22:06Z</time>
      </trkpt>
      <trkpt lat="59.4686168" lon="17.8075165">
        <ele>25.6123</ele>
        <time>2011-08-14T09:22:10Z</time>
      </trkpt>
      <trkpt lat="59.4689226" lon="17.8077014">
        <ele>27.5349</ele>
        <time>2011-08-14T09:22:16Z</time>
      </trkpt>
      <trkpt lat="59.4689835" lon="17.8077378">
        <ele>27.5349</ele>
        <time>2011-08-14T09:22:18Z</time>
      </trkpt>
      <trkpt lat="59.4690988" lon="17.8076382">
        <ele>28.0155</ele>
        <time>2011-08-14T09:22:22Z</time>
      </trkpt>
      <trkpt lat="59.4691457" lon="17.8074316">
        <ele>27.0543</ele>
        <time>2011-08-14T09:22:24Z</time>
      </trkpt>
      <trkpt lat="59.4693047" lon="17.8065962">
        <ele>25.6123</ele>
        <time>2011-08-14T09:22:30Z</time>
      </trkpt>
      <trkpt lat="59.4694892" lon="17.8057067">
        <ele>22.7283</ele>
        <time>2011-08-14T09:22:35Z</time>
      </trkpt>
      <trkpt lat="59.4697807" lon="17.8045112">
        <ele>20.8057</ele>
        <time>2011-08-14T09:22:41Z</time>
      </trkpt>
      <trkpt lat="59.4700818" lon="17.8032021">
        <ele>15.999</ele>
        <time>2011-08-14T09:22:47Z</time>
      </trkpt>
      <trkpt lat="59.4701254" lon="17.8021302">
        <ele>13.5958</ele>
        <time>2011-08-14T09:22:51Z</time>
      </trkpt>
      <trkpt lat="59.470024" lon="17.8016175">
        <ele>11.6732</ele>
        <time>2011-08-14T09:22:53Z</time>
      </trkpt>
      <trkpt lat="59.4698509" lon="17.8011558">
        <ele>9.75061</ele>
        <time>2011-08-14T09:22:55Z</time>
      </trkpt>
      <trkpt lat="59.4692054" lon="17.7997748">
        <ele>4.94385</ele>
        <time>2011-08-14T09:23:02Z</time>
      </trkpt>
      <trkpt lat="59.4691276" lon="17.7995822">
        <ele>4.46326</ele>
        <time>2011-08-14T09:23:03Z</time>
      </trkpt>
      <trkpt lat="59.4689722" lon="17.7987492">
        <ele>3.98267</ele>
        <time>2011-08-14T09:23:07Z</time>
      </trkpt>
      <trkpt lat="59.4690577" lon="17.7981618">
        <ele>3.98267</ele>
        <time>2011-08-14T09:23:10Z</time>
      </trkpt>
      <trkpt lat="59.4692439" lon="17.7977313">
        <ele>4.46326</ele>
        <time>2011-08-14T09:23:13Z</time>
      </trkpt>
      <trkpt lat="59.469326" lon="17.797635">
        <ele>4.46326</ele>
        <time>2011-08-14T09:23:14Z</time>
      </trkpt>
      <trkpt lat="59.4699255" lon="17.7969055">
        <ele>5.42456</ele>
        <time>2011-08-14T09:23:22Z</time>
      </trkpt>
      <trkpt lat="59.4703386" lon="17.7964919">
        <ele>6.86646</ele>
        <time>2011-08-14T09:23:27Z</time>
      </trkpt>
      <trkpt lat="59.4708372" lon="17.7961208">
        <ele>5.42456</ele>
        <time>2011-08-14T09:23:33Z</time>
      </trkpt>
      <trkpt lat="59.4712267" lon="17.7957364">
        <ele>4.94385</ele>
        <time>2011-08-14T09:23:38Z</time>
      </trkpt>
      <trkpt lat="59.4717654" lon="17.7951274">
        <ele>5.42456</ele>
        <time>2011-08-14T09:23:45Z</time>
      </trkpt>
      <trkpt lat="59.4722038" lon="17.79483">
        <ele>3.98267</ele>
        <time>2011-08-14T09:23:50Z</time>
      </trkpt>
      <trkpt lat="59.4724946" lon="17.7943626">
        <ele>3.98267</ele>
        <time>2011-08-14T09:23:54Z</time>
      </trkpt>
      <trkpt lat="59.4725374" lon="17.794195">
        <ele>3.98267</ele>
        <time>2011-08-14T09:23:55Z</time>
      </trkpt>
      <trkpt lat="59.47275" lon="17.792943">
        <ele>4.46326</ele>
        <time>2011-08-14T09:24:02Z</time>
      </trkpt>
      <trkpt lat="59.4729946" lon="17.7913383">
        <ele>4.94385</ele>
        <time>2011-08-14T09:24:11Z</time>
      </trkpt>
      <trkpt lat="59.4731547" lon="17.7907097">
        <ele>5.90527</ele>
        <time>2011-08-14T09:24:15Z</time>
      </trkpt>
      <trkpt lat="59.4734022" lon="17.7899188">
        <ele>9.75061</ele>
        <time>2011-08-14T09:24:21Z</time>
      </trkpt>
      <trkpt lat="59.4736607" lon="17.7889532">
        <ele>18.8831</ele>
        <time>2011-08-14T09:24:29Z</time>
      </trkpt>
      <trkpt lat="59.4737919" lon="17.7883292">
        <ele>18.8831</ele>
        <time>2011-08-14T09:24:34Z</time>
      </trkpt>
      <trkpt lat="59.473998" lon="17.7878598">
        <ele>15.999</ele>
        <time>2011-08-14T09:24:38Z</time>
      </trkpt>
      <trkpt lat="59.4742458" lon="17.7875729">
        <ele>13.5958</ele>
        <time>2011-08-14T09:24:41Z</time>
      </trkpt>
      <trkpt lat="59.4750466" lon="17.786995">
        <ele>9.2699</ele>
        <time>2011-08-14T09:24:49Z</time>
      </trkpt>
      <trkpt lat="59.475626" lon="17.7867683">
        <ele>8.30859</ele>
        <time>2011-08-14T09:24:55Z</time>
      </trkpt>
      <trkpt lat="59.4764555" lon="17.7865084">
        <ele>6.38586</ele>
        <time>2011-08-14T09:25:04Z</time>
      </trkpt>
      <trkpt lat="59.4773106" lon="17.7862606">
        <ele>5.42456</ele>
        <time>2011-08-14T09:25:13Z</time>
      </trkpt>
      <trkpt lat="59.4779063" lon="17.7860545">
        <ele>6.38586</ele>
        <time>2011-08-14T09:25:20Z</time>
      </trkpt>
      <trkpt lat="59.4784277" lon="17.7857711">
        <ele>7.82788</ele>
        <time>2011-08-14T09:25:27Z</time>
      </trkpt>
      <trkpt lat="59.4788789" lon="17.785423">
        <ele>10.2312</ele>
        <time>2011-08-14T09:25:34Z</time>
      </trkpt>
      <trkpt lat="59.479304" lon="17.7849475">
        <ele>11.6732</ele>
        <time>2011-08-14T09:25:42Z</time>
      </trkpt>
      <trkpt lat="59.4796511" lon="17.7844692">
        <ele>15.0377</ele>
        <time>2011-08-14T09:25:49Z</time>
      </trkpt>
      <trkpt lat="59.479978" lon="17.7838455">
        <ele>15.5184</ele>
        <time>2011-08-14T09:25:57Z</time>
      </trkpt>
      <trkpt lat="59.4803047" lon="17.7829972">
        <ele>15.5184</ele>
        <time>2011-08-14T09:26:06Z</time>
      </trkpt>
      <trkpt lat="59.4805546" lon="17.7821656">
        <ele>15.999</ele>
        <time>2011-08-14T09:26:13Z</time>
      </trkpt>
      <trkpt lat="59.4808874" lon="17.780861">
        <ele>18.8831</ele>
        <time>2011-08-14T09:26:23Z</time>
      </trkpt>
      <trkpt lat="59.4812268" lon="17.7794976">
        <ele>23.6896</ele>
        <time>2011-08-14T09:26:34Z</time>
      </trkpt>
      <trkpt lat="59.4814843" lon="17.7784029">
        <ele>26.0929</ele>
        <time>2011-08-14T09:26:43Z</time>
      </trkpt>
      <trkpt lat="59.4817092" lon="17.7774684">
        <ele>29.4575</ele>
        <time>2011-08-14T09:26:51Z</time>
      </trkpt>
      <trkpt lat="59.4819512" lon="17.7763129">
        <ele>32.8223</ele>
        <time>2011-08-14T09:27:01Z</time>
      </trkpt>
      <trkpt lat="59.4820898" lon="17.77537">
        <ele>34.7449</ele>
        <time>2011-08-14T09:27:09Z</time>
      </trkpt>
      <trkpt lat="59.482198" lon="17.7745499">
        <ele>36.6675</ele>
        <time>2011-08-14T09:27:16Z</time>
      </trkpt>
      <trkpt lat="59.4823661" lon="17.7732121">
        <ele>37.6287</ele>
        <time>2011-08-14T09:27:27Z</time>
      </trkpt>
      <trkpt lat="59.4824913" lon="17.7721843">
        <ele>36.6675</ele>
        <time>2011-08-14T09:27:34Z</time>
      </trkpt>
      <trkpt lat="59.4826867" lon="17.7705473">
        <ele>34.7449</ele>
        <time>2011-08-14T09:27:44Z</time>
      </trkpt>
      <trkpt lat="59.4828514" lon="17.7690953">
        <ele>33.7834</ele>
        <time>2011-08-14T09:27:52Z</time>
      </trkpt>
      <trkpt lat="59.4829793" lon="17.7680127">
        <ele>34.7449</ele>
        <time>2011-08-14T09:27:57Z</time>
      </trkpt>
      <trkpt lat="59.4831727" lon="17.766466">
        <ele>35.7061</ele>
        <time>2011-08-14T09:28:03Z</time>
      </trkpt>
      <trkpt lat="59.4833868" lon="17.7645953">
        <ele>26.5736</ele>
        <time>2011-08-14T09:28:10Z</time>
      </trkpt>
      <trkpt lat="59.4836049" lon="17.7629108">
        <ele>17.9218</ele>
        <time>2011-08-14T09:28:16Z</time>
      </trkpt>
      <trkpt lat="59.4835792" lon="17.7618397">
        <ele>13.1151</ele>
        <time>2011-08-14T09:28:20Z</time>
      </trkpt>
      <trkpt lat="59.4835393" lon="17.761594">
        <ele>12.6344</ele>
        <time>2011-08-14T09:28:21Z</time>
      </trkpt>
      <trkpt lat="59.4834374" lon="17.7611475">
        <ele>11.6732</ele>
        <time>2011-08-14T09:28:23Z</time>
      </trkpt>
      <trkpt lat="59.4831317" lon="17.7604415">
        <ele>11.6732</ele>
        <time>2011-08-14T09:28:27Z</time>
      </trkpt>
      <trkpt lat="59.482856" lon="17.7601038">
        <ele>11.6732</ele>
        <time>2011-08-14T09:28:30Z</time>
      </trkpt>
      <trkpt lat="59.4826608" lon="17.759988">
        <ele>12.1538</ele>
        <time>2011-08-14T09:28:32Z</time>
      </trkpt>
      <trkpt lat="59.4820195" lon="17.7597943">
        <ele>15.5184</ele>
        <time>2011-08-14T09:28:39Z</time>
      </trkpt>
      <trkpt lat="59.4818661" lon="17.7597335">
        <ele>15.999</ele>
        <time>2011-08-14T09:28:41Z</time>
      </trkpt>
      <trkpt lat="59.481423" lon="17.7593975">
        <ele>18.8831</ele>
        <time>2011-08-14T09:28:48Z</time>
      </trkpt>
      <trkpt lat="59.4810617" lon="17.7589812">
        <ele>22.2476</ele>
        <time>2011-08-14T09:28:54Z</time>
      </trkpt>
      <trkpt lat="59.4807969" lon="17.7584078">
        <ele>24.1703</ele>
        <time>2011-08-14T09:29:00Z</time>
      </trkpt>
      <trkpt lat="59.4805079" lon="17.7576422">
        <ele>23.6896</ele>
        <time>2011-08-14T09:29:08Z</time>
      </trkpt>
      <trkpt lat="59.4802074" lon="17.7568543">
        <ele>22.7283</ele>
        <time>2011-08-14T09:29:15Z</time>
      </trkpt>
      <trkpt lat="59.4799816" lon="17.7562561">
        <ele>21.767</ele>
        <time>2011-08-14T09:29:19Z</time>
      </trkpt>
      <trkpt lat="59.4795774" lon="17.7552796">
        <ele>18.8831</ele>
        <time>2011-08-14T09:29:25Z</time>
      </trkpt>
      <trkpt lat="59.4791368" lon="17.7542087">
        <ele>15.999</ele>
        <time>2011-08-14T09:29:31Z</time>
      </trkpt>
      <trkpt lat="59.4787124" lon="17.7531023">
        <ele>14.0764</ele>
        <time>2011-08-14T09:29:37Z</time>
      </trkpt>
      <trkpt lat="59.4783056" lon="17.7521674">
        <ele>14.0764</ele>
        <time>2011-08-14T09:29:43Z</time>
      </trkpt>
      <trkpt lat="59.477909" lon="17.7513592">
        <ele>14.557</ele>
        <time>2011-08-14T09:29:49Z</time>
      </trkpt>
      <trkpt lat="59.4778517" lon="17.7512196">
        <ele>14.557</ele>
        <time>2011-08-14T09:29:50Z</time>
      </trkpt>
      <trkpt lat="59.4776194" lon="17.7505146">
        <ele>15.0377</ele>
        <time>2011-08-14T09:29:55Z</time>
      </trkpt>
      <trkpt lat="59.4773501" lon="17.7497379">
        <ele>17.4412</ele>
        <time>2011-08-14T09:30:01Z</time>
      </trkpt>
      <trkpt lat="59.4772574" lon="17.7491415">
        <ele>19.3638</ele>
        <time>2011-08-14T09:30:06Z</time>
      </trkpt>
      <trkpt lat="59.4771652" lon="17.749056">
        <ele>18.8831</ele>
        <time>2011-08-14T09:30:08Z</time>
      </trkpt>
      <trkpt lat="59.4770814" lon="17.749179">
        <ele>18.4023</ele>
        <time>2011-08-14T09:30:10Z</time>
      </trkpt>
      <trkpt lat="59.4770865" lon="17.7493964">
        <ele>18.4023</ele>
        <time>2011-08-14T09:30:12Z</time>
      </trkpt>
      <trkpt lat="59.4771199" lon="17.7494874">
        <ele>17.9218</ele>
        <time>2011-08-14T09:30:13Z</time>
      </trkpt>
      <trkpt lat="59.4773403" lon="17.7500921">
        <ele>19.3638</ele>
        <time>2011-08-14T09:30:19Z</time>
      </trkpt>
      <trkpt lat="59.4774682" lon="17.7505055">
        <ele>20.8057</ele>
        <time>2011-08-14T09:30:24Z</time>
      </trkpt>
      <trkpt lat="59.4776573" lon="17.751092">
        <ele>23.6896</ele>
        <time>2011-08-14T09:30:32Z</time>
      </trkpt>
      <trkpt lat="59.477708" lon="17.7512676">
        <ele>26.5736</ele>
        <time>2011-08-14T09:30:35Z</time>
      </trkpt>
      <trkpt lat="59.4779848" lon="17.7512357">
        <ele>24.651</ele>
        <time>2011-08-14T09:40:59Z</time>
      </trkpt>
      <trkpt lat="59.477984" lon="17.7510168">
        <ele>22.7283</ele>
        <time>2011-08-14T09:41:04Z</time>
      </trkpt>
      <trkpt lat="59.4779277" lon="17.7508472">
        <ele>23.209</ele>
        <time>2011-08-14T09:41:07Z</time>
      </trkpt>
      <trkpt lat="59.4777257" lon="17.7502865">
        <ele>23.209</ele>
        <time>2011-08-14T09:41:14Z</time>
      </trkpt>
      <trkpt lat="59.4775717" lon="17.7498398">
        <ele>23.6896</ele>
        <time>2011-08-14T09:41:19Z</time>
      </trkpt>
      <trkpt lat="59.4774309" lon="17.7496767">
        <ele>23.6896</ele>
        <time>2011-08-14T09:41:22Z</time>
      </trkpt>
      <trkpt lat="59.4773281" lon="17.7493338">
        <ele>24.651</ele>
        <time>2011-08-14T09:41:26Z</time>
      </trkpt>
      <trkpt lat="59.4772326" lon="17.7490546">
        <ele>24.1703</ele>
        <time>2011-08-14T09:41:29Z</time>
      </trkpt>
      <trkpt lat="59.4771786" lon="17.7490034">
        <ele>24.1703</ele>
        <time>2011-08-14T09:41:30Z</time>
      </trkpt>
      <trkpt lat="59.4768944" lon="17.7485245">
        <ele>23.209</ele>
        <time>2011-08-14T09:41:36Z</time>
      </trkpt>
      <trkpt lat="59.4767114" lon="17.7478806">
        <ele>22.2476</ele>
        <time>2011-08-14T09:41:41Z</time>
      </trkpt>
      <trkpt lat="59.4764895" lon="17.7469214">
        <ele>20.8057</ele>
        <time>2011-08-14T09:41:47Z</time>
      </trkpt>
      <trkpt lat="59.4763105" lon="17.7458487">
        <ele>19.8444</ele>
        <time>2011-08-14T09:41:53Z</time>
      </trkpt>
      <trkpt lat="59.476211" lon="17.7447419">
        <ele>18.4023</ele>
        <time>2011-08-14T09:41:59Z</time>
      </trkpt>
      <trkpt lat="59.4762383" lon="17.7434642">
        <ele>17.4412</ele>
        <time>2011-08-14T09:42:06Z</time>
      </trkpt>
      <trkpt lat="59.4763391" lon="17.7421543">
        <ele>15.0377</ele>
        <time>2011-08-14T09:42:13Z</time>
      </trkpt>
      <trkpt lat="59.476438" lon="17.7414606">
        <ele>13.5958</ele>
        <time>2011-08-14T09:42:17Z</time>
      </trkpt>
      <trkpt lat="59.4767187" lon="17.7402068">
        <ele>9.75061</ele>
        <time>2011-08-14T09:42:24Z</time>
      </trkpt>
      <trkpt lat="59.4770622" lon="17.7391177">
        <ele>8.78918</ele>
        <time>2011-08-14T09:42:30Z</time>
      </trkpt>
      <trkpt lat="59.4774131" lon="17.7378868">
        <ele>9.2699</ele>
        <time>2011-08-14T09:42:37Z</time>
      </trkpt>
      <trkpt lat="59.4777443" lon="17.7368404">
        <ele>9.75061</ele>
        <time>2011-08-14T09:42:44Z</time>
      </trkpt>
      <trkpt lat="59.478022" lon="17.7358836">
        <ele>9.75061</ele>
        <time>2011-08-14T09:42:51Z</time>
      </trkpt>
      <trkpt lat="59.4782924" lon="17.7346621">
        <ele>11.1925</ele>
        <time>2011-08-14T09:43:00Z</time>
      </trkpt>
      <trkpt lat="59.4784782" lon="17.7335091">
        <ele>12.1538</ele>
        <time>2011-08-14T09:43:08Z</time>
      </trkpt>
      <trkpt lat="59.4786109" lon="17.7321761">
        <ele>13.1151</ele>
        <time>2011-08-14T09:43:17Z</time>
      </trkpt>
      <trkpt lat="59.4786747" lon="17.7308574">
        <ele>14.557</ele>
        <time>2011-08-14T09:43:26Z</time>
      </trkpt>
      <trkpt lat="59.4787088" lon="17.7295426">
        <ele>15.999</ele>
        <time>2011-08-14T09:43:35Z</time>
      </trkpt>
      <trkpt lat="59.4787708" lon="17.7291258">
        <ele>16.4797</ele>
        <time>2011-08-14T09:43:38Z</time>
      </trkpt>
      <trkpt lat="59.4787563" lon="17.7286056">
        <ele>16.9604</ele>
        <time>2011-08-14T09:43:42Z</time>
      </trkpt>
      <trkpt lat="59.4786717" lon="17.7277408">
        <ele>18.4023</ele>
        <time>2011-08-14T09:43:48Z</time>
      </trkpt>
      <trkpt lat="59.4786503" lon="17.7262538">
        <ele>19.8444</ele>
        <time>2011-08-14T09:43:58Z</time>
      </trkpt>
      <trkpt lat="59.4786311" lon="17.7251073">
        <ele>20.8057</ele>
        <time>2011-08-14T09:44:06Z</time>
      </trkpt>
      <trkpt lat="59.4786043" lon="17.7235705">
        <ele>23.209</ele>
        <time>2011-08-14T09:44:17Z</time>
      </trkpt>
      <trkpt lat="59.4785834" lon="17.722448">
        <ele>25.6123</ele>
        <time>2011-08-14T09:44:26Z</time>
      </trkpt>
      <trkpt lat="59.4785655" lon="17.7211301">
        <ele>27.0543</ele>
        <time>2011-08-14T09:44:37Z</time>
      </trkpt>
      <trkpt lat="59.4785481" lon="17.7201895">
        <ele>27.5349</ele>
        <time>2011-08-14T09:44:44Z</time>
      </trkpt>
      <trkpt lat="59.4785585" lon="17.7188716">
        <ele>26.5736</ele>
        <time>2011-08-14T09:44:53Z</time>
      </trkpt>
      <trkpt lat="59.4786621" lon="17.7176192">
        <ele>26.5736</ele>
        <time>2011-08-14T09:45:01Z</time>
      </trkpt>
      <trkpt lat="59.4788112" lon="17.7164974">
        <ele>26.0929</ele>
        <time>2011-08-14T09:45:08Z</time>
      </trkpt>
      <trkpt lat="59.4790222" lon="17.7150399">
        <ele>25.6123</ele>
        <time>2011-08-14T09:45:17Z</time>
      </trkpt>
      <trkpt lat="59.4792647" lon="17.7131721">
        <ele>26.0929</ele>
        <time>2011-08-14T09:45:28Z</time>
      </trkpt>
      <trkpt lat="59.4795092" lon="17.7117874">
        <ele>27.0543</ele>
        <time>2011-08-14T09:45:36Z</time>
      </trkpt>
      <trkpt lat="59.4798569" lon="17.7104498">
        <ele>27.0543</ele>
        <time>2011-08-14T09:45:44Z</time>
      </trkpt>
      <trkpt lat="59.4802623" lon="17.7091641">
        <ele>27.5349</ele>
        <time>2011-08-14T09:45:52Z</time>
      </trkpt>
      <trkpt lat="59.4807905" lon="17.7074724">
        <ele>28.0155</ele>
        <time>2011-08-14T09:46:03Z</time>
      </trkpt>
      <trkpt lat="59.4812664" lon="17.705951">
        <ele>28.9769</ele>
        <time>2011-08-14T09:46:13Z</time>
      </trkpt>
      <trkpt lat="59.4817769" lon="17.7044529">
        <ele>29.9381</ele>
        <time>2011-08-14T09:46:23Z</time>
      </trkpt>
      <trkpt lat="59.4822553" lon="17.7033022">
        <ele>30.8995</ele>
        <time>2011-08-14T09:46:31Z</time>
      </trkpt>
      <trkpt lat="59.4826908" lon="17.7023512">
        <ele>33.3029</ele>
        <time>2011-08-14T09:46:38Z</time>
      </trkpt>
      <trkpt lat="59.4831361" lon="17.7013682">
        <ele>35.2255</ele>
        <time>2011-08-14T09:46:45Z</time>
      </trkpt>
      <trkpt lat="59.4837666" lon="17.7000108">
        <ele>37.1481</ele>
        <time>2011-08-14T09:46:55Z</time>
      </trkpt>
      <trkpt lat="59.4843971" lon="17.6986926">
        <ele>37.6287</ele>
        <time>2011-08-14T09:47:05Z</time>
      </trkpt>
      <trkpt lat="59.4847939" lon="17.6978177">
        <ele>34.7449</ele>
        <time>2011-08-14T09:47:11Z</time>
      </trkpt>
      <trkpt lat="59.4851647" lon="17.696922">
        <ele>30.8995</ele>
        <time>2011-08-14T09:47:16Z</time>
      </trkpt>
      <trkpt lat="59.4857538" lon="17.6955942">
        <ele>24.1703</ele>
        <time>2011-08-14T09:47:23Z</time>
      </trkpt>
      <trkpt lat="59.4863786" lon="17.6942429">
        <ele>17.9218</ele>
        <time>2011-08-14T09:47:30Z</time>
      </trkpt>
      <trkpt lat="59.4869437" lon="17.69313">
        <ele>14.557</ele>
        <time>2011-08-14T09:47:36Z</time>
      </trkpt>
      <trkpt lat="59.4874758" lon="17.6922004">
        <ele>14.557</ele>
        <time>2011-08-14T09:47:42Z</time>
      </trkpt>
      <trkpt lat="59.4880183" lon="17.6912975">
        <ele>15.0377</ele>
        <time>2011-08-14T09:47:49Z</time>
      </trkpt>
      <trkpt lat="59.4881656" lon="17.6910419">
        <ele>14.557</ele>
        <time>2011-08-14T09:47:51Z</time>
      </trkpt>
      <trkpt lat="59.4886781" lon="17.6901277">
        <ele>13.1151</ele>
        <time>2011-08-14T09:47:58Z</time>
      </trkpt>
      <trkpt lat="59.4891721" lon="17.6894041">
        <ele>13.1151</ele>
        <time>2011-08-14T09:48:04Z</time>
      </trkpt>
      <trkpt lat="59.4898091" lon="17.6887471">
        <ele>13.1151</ele>
        <time>2011-08-14T09:48:11Z</time>
      </trkpt>
      <trkpt lat="59.4906099" lon="17.6879715">
        <ele>11.6732</ele>
        <time>2011-08-14T09:48:20Z</time>
      </trkpt>
      <trkpt lat="59.4912898" lon="17.687383">
        <ele>9.75061</ele>
        <time>2011-08-14T09:48:27Z</time>
      </trkpt>
      <trkpt lat="59.4921472" lon="17.6866753">
        <ele>7.34717</ele>
        <time>2011-08-14T09:48:36Z</time>
      </trkpt>
      <trkpt lat="59.4925624" lon="17.6861023">
        <ele>6.38586</ele>
        <time>2011-08-14T09:48:41Z</time>
      </trkpt>
      <trkpt lat="59.4932442" lon="17.6849359">
        <ele>6.86646</ele>
        <time>2011-08-14T09:48:50Z</time>
      </trkpt>
      <trkpt lat="59.4938608" lon="17.6836812">
        <ele>6.38586</ele>
        <time>2011-08-14T09:48:59Z</time>
      </trkpt>
      <trkpt lat="59.4943714" lon="17.6825933">
        <ele>7.82788</ele>
        <time>2011-08-14T09:49:07Z</time>
      </trkpt>
      <trkpt lat="59.4947676" lon="17.6815615">
        <ele>10.7118</ele>
        <time>2011-08-14T09:49:14Z</time>
      </trkpt>
      <trkpt lat="59.4952416" lon="17.6802731">
        <ele>13.1151</ele>
        <time>2011-08-14T09:49:23Z</time>
      </trkpt>
      <trkpt lat="59.49573" lon="17.6790441">
        <ele>15.999</ele>
        <time>2011-08-14T09:49:32Z</time>
      </trkpt>
      <trkpt lat="59.4962202" lon="17.6779317">
        <ele>14.557</ele>
        <time>2011-08-14T09:49:40Z</time>
      </trkpt>
      <trkpt lat="59.4966644" lon="17.6769414">
        <ele>12.1538</ele>
        <time>2011-08-14T09:49:46Z</time>
      </trkpt>
      <trkpt lat="59.497325" lon="17.6754536">
        <ele>10.7118</ele>
        <time>2011-08-14T09:49:55Z</time>
      </trkpt>
      <trkpt lat="59.4979781" lon="17.6741176">
        <ele>10.2312</ele>
        <time>2011-08-14T09:50:04Z</time>
      </trkpt>
      <trkpt lat="59.4986532" lon="17.6729765">
        <ele>11.1925</ele>
        <time>2011-08-14T09:50:13Z</time>
      </trkpt>
      <trkpt lat="59.4993069" lon="17.6718913">
        <ele>11.1925</ele>
        <time>2011-08-14T09:50:22Z</time>
      </trkpt>
      <trkpt lat="59.5001934" lon="17.6704464">
        <ele>9.2699</ele>
        <time>2011-08-14T09:50:34Z</time>
      </trkpt>
      <trkpt lat="59.5009251" lon="17.6691679">
        <ele>9.75061</ele>
        <time>2011-08-14T09:50:44Z</time>
      </trkpt>
      <trkpt lat="59.5015454" lon="17.6679725">
        <ele>9.75061</ele>
        <time>2011-08-14T09:50:53Z</time>
      </trkpt>
      <trkpt lat="59.502083" lon="17.6671832">
        <ele>9.75061</ele>
        <time>2011-08-14T09:51:00Z</time>
      </trkpt>
      <trkpt lat="59.5028546" lon="17.6661612">
        <ele>9.2699</ele>
        <time>2011-08-14T09:51:10Z</time>
      </trkpt>
      <trkpt lat="59.503786" lon="17.6648939">
        <ele>9.2699</ele>
        <time>2011-08-14T09:51:22Z</time>
      </trkpt>
      <trkpt lat="59.5045866" lon="17.6637293">
        <ele>9.2699</ele>
        <time>2011-08-14T09:51:33Z</time>
      </trkpt>
      <trkpt lat="59.5050942" lon="17.6628194">
        <ele>10.2312</ele>
        <time>2011-08-14T09:51:41Z</time>
      </trkpt>
      <trkpt lat="59.5055164" lon="17.6619986">
        <ele>10.2312</ele>
        <time>2011-08-14T09:51:48Z</time>
      </trkpt>
      <trkpt lat="59.5056444" lon="17.6617624">
        <ele>10.2312</ele>
        <time>2011-08-14T09:51:50Z</time>
      </trkpt>
      <trkpt lat="59.5060057" lon="17.6613494">
        <ele>9.75061</ele>
        <time>2011-08-14T09:51:55Z</time>
      </trkpt>
      <trkpt lat="59.5063114" lon="17.6612954">
        <ele>9.75061</ele>
        <time>2011-08-14T09:51:59Z</time>
      </trkpt>
      <trkpt lat="59.5063778" lon="17.6613478">
        <ele>9.75061</ele>
        <time>2011-08-14T09:52:00Z</time>
      </trkpt>
      <trkpt lat="59.5066477" lon="17.661375">
        <ele>10.2312</ele>
        <time>2011-08-14T09:52:05Z</time>
      </trkpt>
      <trkpt lat="59.5067006" lon="17.6611655">
        <ele>10.7118</ele>
        <time>2011-08-14T09:52:07Z</time>
      </trkpt>
      <trkpt lat="59.5069672" lon="17.6601059">
        <ele>12.6344</ele>
        <time>2011-08-14T09:52:16Z</time>
      </trkpt>
      <trkpt lat="59.5072776" lon="17.6591844">
        <ele>14.0764</ele>
        <time>2011-08-14T09:52:24Z</time>
      </trkpt>
      <trkpt lat="59.5076165" lon="17.6582806">
        <ele>15.5184</ele>
        <time>2011-08-14T09:52:31Z</time>
      </trkpt>
      <trkpt lat="59.507919" lon="17.657556">
        <ele>15.0377</ele>
        <time>2011-08-14T09:52:36Z</time>
      </trkpt>
      <trkpt lat="59.5084446" lon="17.6565683">
        <ele>15.0377</ele>
        <time>2011-08-14T09:52:43Z</time>
      </trkpt>
      <trkpt lat="59.5089095" lon="17.6558631">
        <ele>15.0377</ele>
        <time>2011-08-14T09:52:49Z</time>
      </trkpt>
      <trkpt lat="59.5094656" lon="17.6550332">
        <ele>15.999</ele>
        <time>2011-08-14T09:52:57Z</time>
      </trkpt>
      <trkpt lat="59.5097941" lon="17.6545307">
        <ele>15.999</ele>
        <time>2011-08-14T09:53:02Z</time>
      </trkpt>
      <trkpt lat="59.5101772" lon="17.6540038">
        <ele>15.5184</ele>
        <time>2011-08-14T09:53:08Z</time>
      </trkpt>
      <trkpt lat="59.5102835" lon="17.6537297">
        <ele>15.0377</ele>
        <time>2011-08-14T09:53:11Z</time>
      </trkpt>
      <trkpt lat="59.5102296" lon="17.6535492">
        <ele>15.0377</ele>
        <time>2011-08-14T09:53:13Z</time>
      </trkpt>
      <trkpt lat="59.5100112" lon="17.6532372">
        <ele>14.0764</ele>
        <time>2011-08-14T09:53:17Z</time>
      </trkpt>
      <trkpt lat="59.5098521" lon="17.6528601">
        <ele>13.5958</ele>
        <time>2011-08-14T09:53:20Z</time>
      </trkpt>
      <trkpt lat="59.5095554" lon="17.6516874">
        <ele>13.5958</ele>
        <time>2011-08-14T09:53:27Z</time>
      </trkpt>
      <trkpt lat="59.5093015" lon="17.6504708">
        <ele>14.0764</ele>
        <time>2011-08-14T09:53:34Z</time>
      </trkpt>
      <trkpt lat="59.5089881" lon="17.648959">
        <ele>16.4797</ele>
        <time>2011-08-14T09:53:43Z</time>
      </trkpt>
      <trkpt lat="59.5087364" lon="17.6474904">
        <ele>23.209</ele>
        <time>2011-08-14T09:53:52Z</time>
      </trkpt>
      <trkpt lat="59.5085035" lon="17.6460649">
        <ele>26.5736</ele>
        <time>2011-08-14T09:54:01Z</time>
      </trkpt>
      <trkpt lat="59.508291" lon="17.6447665">
        <ele>24.1703</ele>
        <time>2011-08-14T09:54:08Z</time>
      </trkpt>
      <trkpt lat="59.5080836" lon="17.6434241">
        <ele>19.8444</ele>
        <time>2011-08-14T09:54:14Z</time>
      </trkpt>
      <trkpt lat="59.5078615" lon="17.6415653">
        <ele>17.9218</ele>
        <time>2011-08-14T09:54:22Z</time>
      </trkpt>
      <trkpt lat="59.5077122" lon="17.6400925">
        <ele>17.9218</ele>
        <time>2011-08-14T09:54:29Z</time>
      </trkpt>
      <trkpt lat="59.5075522" lon="17.6382776">
        <ele>17.4412</ele>
        <time>2011-08-14T09:54:38Z</time>
      </trkpt>
      <trkpt lat="59.5075659" lon="17.6372649">
        <ele>17.9218</ele>
        <time>2011-08-14T09:54:43Z</time>
      </trkpt>
      <trkpt lat="59.5076724" lon="17.6362957">
        <ele>18.4023</ele>
        <time>2011-08-14T09:54:48Z</time>
      </trkpt>
      <trkpt lat="59.5078633" lon="17.635428">
        <ele>18.8831</ele>
        <time>2011-08-14T09:54:53Z</time>
      </trkpt>
      <trkpt lat="59.5081162" lon="17.6346537">
        <ele>19.3638</ele>
        <time>2011-08-14T09:54:58Z</time>
      </trkpt>
      <trkpt lat="59.5086408" lon="17.6331872">
        <ele>20.325</ele>
        <time>2011-08-14T09:55:08Z</time>
      </trkpt>
      <trkpt lat="59.5092668" lon="17.6314378">
        <ele>21.2864</ele>
        <time>2011-08-14T09:55:20Z</time>
      </trkpt>
      <trkpt lat="59.5097237" lon="17.6301433">
        <ele>21.2864</ele>
        <time>2011-08-14T09:55:29Z</time>
      </trkpt>
      <trkpt lat="59.5101737" lon="17.6288674">
        <ele>21.2864</ele>
        <time>2011-08-14T09:55:38Z</time>
      </trkpt>
      <trkpt lat="59.5105751" lon="17.6277781">
        <ele>22.2476</ele>
        <time>2011-08-14T09:55:46Z</time>
      </trkpt>
      <trkpt lat="59.511156" lon="17.6261717">
        <ele>24.651</ele>
        <time>2011-08-14T09:55:58Z</time>
      </trkpt>
      <trkpt lat="59.5115508" lon="17.6250545">
        <ele>27.0543</ele>
        <time>2011-08-14T09:56:07Z</time>
      </trkpt>
      <trkpt lat="59.511923" lon="17.6239288">
        <ele>27.0543</ele>
        <time>2011-08-14T09:56:16Z</time>
      </trkpt>
      <trkpt lat="59.5122288" lon="17.6228279">
        <ele>26.0929</ele>
        <time>2011-08-14T09:56:24Z</time>
      </trkpt>
      <trkpt lat="59.51252" lon="17.6214781">
        <ele>25.1317</ele>
        <time>2011-08-14T09:56:33Z</time>
      </trkpt>
      <trkpt lat="59.512739" lon="17.620117">
        <ele>25.6123</ele>
        <time>2011-08-14T09:56:42Z</time>
      </trkpt>
      <trkpt lat="59.5129085" lon="17.6185488">
        <ele>26.5736</ele>
        <time>2011-08-14T09:56:52Z</time>
      </trkpt>
      <trkpt lat="59.5129824" lon="17.6173364">
        <ele>28.4962</ele>
        <time>2011-08-14T09:57:00Z</time>
      </trkpt>
      <trkpt lat="59.5130827" lon="17.6164363">
        <ele>29.9381</ele>
        <time>2011-08-14T09:57:06Z</time>
      </trkpt>
      <trkpt lat="59.5131555" lon="17.6158742">
        <ele>30.8995</ele>
        <time>2011-08-14T09:57:10Z</time>
      </trkpt>
      <trkpt lat="59.5133252" lon="17.6154531">
        <ele>31.8607</ele>
        <time>2011-08-14T09:57:14Z</time>
      </trkpt>
      <trkpt lat="59.5134483" lon="17.6153562">
        <ele>32.3416</ele>
        <time>2011-08-14T09:57:16Z</time>
      </trkpt>
      <trkpt lat="59.5139673" lon="17.6151762">
        <ele>32.8223</ele>
        <time>2011-08-14T09:57:24Z</time>
      </trkpt>
      <trkpt lat="59.5143845" lon="17.6151734">
        <ele>32.8223</ele>
        <time>2011-08-14T09:57:30Z</time>
      </trkpt>
      <trkpt lat="59.5148772" lon="17.6151731">
        <ele>31.3801</ele>
        <time>2011-08-14T09:57:36Z</time>
      </trkpt>
      <trkpt lat="59.5153491" lon="17.61505">
        <ele>29.9381</ele>
        <time>2011-08-14T09:57:41Z</time>
      </trkpt>
      <trkpt lat="59.515888" lon="17.6147215">
        <ele>29.9381</ele>
        <time>2011-08-14T09:57:47Z</time>
      </trkpt>
      <trkpt lat="59.5163493" lon="17.6142544">
        <ele>29.9381</ele>
        <time>2011-08-14T09:57:53Z</time>
      </trkpt>
      <trkpt lat="59.5167431" lon="17.6137768">
        <ele>30.4188</ele>
        <time>2011-08-14T09:57:59Z</time>
      </trkpt>
      <trkpt lat="59.516808" lon="17.613704">
        <ele>30.4188</ele>
        <time>2011-08-14T09:58:00Z</time>
      </trkpt>
      <trkpt lat="59.5170742" lon="17.6131063">
        <ele>29.4575</ele>
        <time>2011-08-14T09:58:05Z</time>
      </trkpt>
      <trkpt lat="59.5173598" lon="17.6121628">
        <ele>28.9769</ele>
        <time>2011-08-14T09:58:11Z</time>
      </trkpt>
      <trkpt lat="59.5174239" lon="17.6120212">
        <ele>28.9769</ele>
        <time>2011-08-14T09:58:12Z</time>
      </trkpt>
      <trkpt lat="59.5178822" lon="17.6113451">
        <ele>28.0155</ele>
        <time>2011-08-14T09:58:18Z</time>
      </trkpt>
      <trkpt lat="59.5183863" lon="17.6106695">
        <ele>27.0543</ele>
        <time>2011-08-14T09:58:24Z</time>
      </trkpt>
      <trkpt lat="59.5188349" lon="17.6098502">
        <ele>26.5736</ele>
        <time>2011-08-14T09:58:30Z</time>
      </trkpt>
      <trkpt lat="59.5192047" lon="17.6089303">
        <ele>26.5736</ele>
        <time>2011-08-14T09:58:36Z</time>
      </trkpt>
      <trkpt lat="59.5197607" lon="17.6073398">
        <ele>26.5736</ele>
        <time>2011-08-14T09:58:46Z</time>
      </trkpt>
      <trkpt lat="59.5202696" lon="17.6057026">
        <ele>27.5349</ele>
        <time>2011-08-14T09:58:56Z</time>
      </trkpt>
      <trkpt lat="59.520692" lon="17.6041573">
        <ele>28.0155</ele>
        <time>2011-08-14T09:59:05Z</time>
      </trkpt>
      <trkpt lat="59.5211314" lon="17.6024526">
        <ele>29.9381</ele>
        <time>2011-08-14T09:59:15Z</time>
      </trkpt>
      <trkpt lat="59.5214886" lon="17.6010834">
        <ele>31.3801</ele>
        <time>2011-08-14T09:59:23Z</time>
      </trkpt>
      <trkpt lat="59.5218989" lon="17.5994942">
        <ele>31.3801</ele>
        <time>2011-08-14T09:59:32Z</time>
      </trkpt>
      <trkpt lat="59.5223226" lon="17.5978443">
        <ele>30.8995</ele>
        <time>2011-08-14T09:59:41Z</time>
      </trkpt>
      <trkpt lat="59.5227973" lon="17.5960132">
        <ele>30.8995</ele>
        <time>2011-08-14T09:59:51Z</time>
      </trkpt>
      <trkpt lat="59.5232197" lon="17.5943654">
        <ele>30.8995</ele>
        <time>2011-08-14T10:00:00Z</time>
      </trkpt>
      <trkpt lat="59.5236222" lon="17.5928262">
        <ele>31.8607</ele>
        <time>2011-08-14T10:00:09Z</time>
      </trkpt>
      <trkpt lat="59.5239596" lon="17.5915298">
        <ele>33.3029</ele>
        <time>2011-08-14T10:00:17Z</time>
      </trkpt>
      <trkpt lat="59.5243044" lon="17.5902113">
        <ele>35.2255</ele>
        <time>2011-08-14T10:00:25Z</time>
      </trkpt>
      <trkpt lat="59.5247242" lon="17.5886259">
        <ele>34.2642</ele>
        <time>2011-08-14T10:00:34Z</time>
      </trkpt>
      <trkpt lat="59.5251856" lon="17.5869313">
        <ele>32.8223</ele>
        <time>2011-08-14T10:00:43Z</time>
      </trkpt>
      <trkpt lat="59.5255793" lon="17.5856712">
        <ele>31.8607</ele>
        <time>2011-08-14T10:00:50Z</time>
      </trkpt>
      <trkpt lat="59.526144" lon="17.5841374">
        <ele>31.3801</ele>
        <time>2011-08-14T10:00:59Z</time>
      </trkpt>
      <trkpt lat="59.5266429" lon="17.5830052">
        <ele>30.8995</ele>
        <time>2011-08-14T10:01:06Z</time>
      </trkpt>
      <trkpt lat="59.5272509" lon="17.5818637">
        <ele>30.4188</ele>
        <time>2011-08-14T10:01:14Z</time>
      </trkpt>
      <trkpt lat="59.5277131" lon="17.5810763">
        <ele>29.9381</ele>
        <time>2011-08-14T10:01:20Z</time>
      </trkpt>
      <trkpt lat="59.5283227" lon="17.5801445">
        <ele>30.8995</ele>
        <time>2011-08-14T10:01:28Z</time>
      </trkpt>
      <trkpt lat="59.5287879" lon="17.5795197">
        <ele>31.8607</ele>
        <time>2011-08-14T10:01:34Z</time>
      </trkpt>
      <trkpt lat="59.5293408" lon="17.5788527">
        <ele>32.3416</ele>
        <time>2011-08-14T10:01:41Z</time>
      </trkpt>
      <trkpt lat="59.5300184" lon="17.5780717">
        <ele>31.3801</ele>
        <time>2011-08-14T10:01:49Z</time>
      </trkpt>
      <trkpt lat="59.5309076" lon="17.5770797">
        <ele>29.9381</ele>
        <time>2011-08-14T10:01:59Z</time>
      </trkpt>
      <trkpt lat="59.5318314" lon="17.5760737">
        <ele>27.5349</ele>
        <time>2011-08-14T10:02:09Z</time>
      </trkpt>
      <trkpt lat="59.5323792" lon="17.575458">
        <ele>26.5736</ele>
        <time>2011-08-14T10:02:15Z</time>
      </trkpt>
      <trkpt lat="59.5330974" lon="17.5746172">
        <ele>26.0929</ele>
        <time>2011-08-14T10:02:23Z</time>
      </trkpt>
      <trkpt lat="59.5338342" lon="17.5737398">
        <ele>25.1317</ele>
        <time>2011-08-14T10:02:31Z</time>
      </trkpt>
      <trkpt lat="59.5346741" lon="17.5727471">
        <ele>23.209</ele>
        <time>2011-08-14T10:02:40Z</time>
      </trkpt>
      <trkpt lat="59.5355247" lon="17.5717267">
        <ele>23.209</ele>
        <time>2011-08-14T10:02:49Z</time>
      </trkpt>
      <trkpt lat="59.5363514" lon="17.5707802">
        <ele>22.2476</ele>
        <time>2011-08-14T10:02:58Z</time>
      </trkpt>
      <trkpt lat="59.537117" lon="17.569932">
        <ele>20.325</ele>
        <time>2011-08-14T10:03:06Z</time>
      </trkpt>
      <trkpt lat="59.5378444" lon="17.5691149">
        <ele>18.4023</ele>
        <time>2011-08-14T10:03:14Z</time>
      </trkpt>
      <trkpt lat="59.5383596" lon="17.568488">
        <ele>17.4412</ele>
        <time>2011-08-14T10:03:20Z</time>
      </trkpt>
      <trkpt lat="59.5388466" lon="17.5679215">
        <ele>18.8831</ele>
        <time>2011-08-14T10:03:26Z</time>
      </trkpt>
      <trkpt lat="59.5393755" lon="17.56728">
        <ele>21.2864</ele>
        <time>2011-08-14T10:03:33Z</time>
      </trkpt>
      <trkpt lat="59.5399319" lon="17.5666805">
        <ele>21.767</ele>
        <time>2011-08-14T10:03:40Z</time>
      </trkpt>
      <trkpt lat="59.5401574" lon="17.5661603">
        <ele>21.767</ele>
        <time>2011-08-14T10:03:44Z</time>
      </trkpt>
      <trkpt lat="59.5402018" lon="17.5659997">
        <ele>22.7283</ele>
        <time>2011-08-14T10:03:45Z</time>
      </trkpt>
      <trkpt lat="59.5404535" lon="17.5655386">
        <ele>24.651</ele>
        <time>2011-08-14T10:03:49Z</time>
      </trkpt>
      <trkpt lat="59.5408876" lon="17.565016">
        <ele>25.6123</ele>
        <time>2011-08-14T10:03:55Z</time>
      </trkpt>
      <trkpt lat="59.5411793" lon="17.5644276">
        <ele>26.0929</ele>
        <time>2011-08-14T10:04:00Z</time>
      </trkpt>
      <trkpt lat="59.5415637" lon="17.5634464">
        <ele>25.6123</ele>
        <time>2011-08-14T10:04:07Z</time>
      </trkpt>
      <trkpt lat="59.5419993" lon="17.5623145">
        <ele>22.7283</ele>
        <time>2011-08-14T10:04:14Z</time>
      </trkpt>
      <trkpt lat="59.5424467" lon="17.5612309">
        <ele>19.3638</ele>
        <time>2011-08-14T10:04:20Z</time>
      </trkpt>
      <trkpt lat="59.5427407" lon="17.5606982">
        <ele>16.9604</ele>
        <time>2011-08-14T10:04:23Z</time>
      </trkpt>
      <trkpt lat="59.5432524" lon="17.5601858">
        <ele>13.5958</ele>
        <time>2011-08-14T10:04:27Z</time>
      </trkpt>
      <trkpt lat="59.5433953" lon="17.5601141">
        <ele>13.5958</ele>
        <time>2011-08-14T10:04:28Z</time>
      </trkpt>
      <trkpt lat="59.5445244" lon="17.5596121">
        <ele>9.75061</ele>
        <time>2011-08-14T10:04:36Z</time>
      </trkpt>
      <trkpt lat="59.545459" lon="17.5591789">
        <ele>6.86646</ele>
        <time>2011-08-14T10:04:43Z</time>
      </trkpt>
      <trkpt lat="59.5463133" lon="17.5587896">
        <ele>3.98267</ele>
        <time>2011-08-14T10:04:50Z</time>
      </trkpt>
      <trkpt lat="59.5470109" lon="17.55849">
        <ele>0.618042</ele>
        <time>2011-08-14T10:04:56Z</time>
      </trkpt>
      <trkpt lat="59.5471217" lon="17.5584536">
        <ele>0.137451</ele>
        <time>2011-08-14T10:04:57Z</time>
      </trkpt>
      <trkpt lat="59.5476565" lon="17.5584953">
        <ele>0</ele>
        <time>2011-08-14T10:05:02Z</time>
      </trkpt>
      <trkpt lat="59.5481425" lon="17.55873">
        <ele>0</ele>
        <time>2011-08-14T10:05:07Z</time>
      </trkpt>
      <trkpt lat="59.5487003" lon="17.5588393">
        <ele>0</ele>
        <time>2011-08-14T10:05:13Z</time>
      </trkpt>
      <trkpt lat="59.5493022" lon="17.5587999">
        <ele>0.137451</ele>
        <time>2011-08-14T10:05:20Z</time>
      </trkpt>
      <trkpt lat="59.5498371" lon="17.5586993">
        <ele>1.09863</ele>
        <time>2011-08-14T10:05:27Z</time>
      </trkpt>
      <trkpt lat="59.55026" lon="17.5582908">
        <ele>1.57935</ele>
        <time>2011-08-14T10:05:33Z</time>
      </trkpt>
      <trkpt lat="59.5506496" lon="17.5576711">
        <ele>2.54065</ele>
        <time>2011-08-14T10:05:39Z</time>
      </trkpt>
      <trkpt lat="59.5511805" lon="17.5567926">
        <ele>3.02124</ele>
        <time>2011-08-14T10:05:47Z</time>
      </trkpt>
      <trkpt lat="59.5517017" lon="17.5559232">
        <ele>3.02124</ele>
        <time>2011-08-14T10:05:55Z</time>
      </trkpt>
      <trkpt lat="59.5522797" lon="17.5549883">
        <ele>3.02124</ele>
        <time>2011-08-14T10:06:04Z</time>
      </trkpt>
      <trkpt lat="59.5527241" lon="17.5542611">
        <ele>3.50195</ele>
        <time>2011-08-14T10:06:11Z</time>
      </trkpt>
      <trkpt lat="59.5530184" lon="17.5535653">
        <ele>3.50195</ele>
        <time>2011-08-14T10:06:17Z</time>
      </trkpt>
      <trkpt lat="59.5531879" lon="17.5527604">
        <ele>5.42456</ele>
        <time>2011-08-14T10:06:23Z</time>
      </trkpt>
      <trkpt lat="59.5532396" lon="17.5520595">
        <ele>7.34717</ele>
        <time>2011-08-14T10:06:28Z</time>
      </trkpt>
      <trkpt lat="59.553258" lon="17.5510049">
        <ele>9.75061</ele>
        <time>2011-08-14T10:06:36Z</time>
      </trkpt>
      <trkpt lat="59.5532734" lon="17.5501563">
        <ele>11.6732</ele>
        <time>2011-08-14T10:06:43Z</time>
      </trkpt>
      <trkpt lat="59.553279" lon="17.5500334">
        <ele>11.6732</ele>
        <time>2011-08-14T10:06:44Z</time>
      </trkpt>
      <trkpt lat="59.553358" lon="17.5493102">
        <ele>12.6344</ele>
        <time>2011-08-14T10:06:50Z</time>
      </trkpt>
      <trkpt lat="59.5534928" lon="17.54857">
        <ele>14.557</ele>
        <time>2011-08-14T10:06:56Z</time>
      </trkpt>
      <trkpt lat="59.5537149" lon="17.5479533">
        <ele>15.5184</ele>
        <time>2011-08-14T10:07:02Z</time>
      </trkpt>
      <trkpt lat="59.5541245" lon="17.5473213">
        <ele>15.999</ele>
        <time>2011-08-14T10:07:10Z</time>
      </trkpt>
      <trkpt lat="59.5543948" lon="17.5469346">
        <ele>16.4797</ele>
        <time>2011-08-14T10:07:15Z</time>
      </trkpt>
      <trkpt lat="59.5548339" lon="17.5464171">
        <ele>16.9604</ele>
        <time>2011-08-14T10:07:22Z</time>
      </trkpt>
      <trkpt lat="59.5552365" lon="17.5461941">
        <ele>17.4412</ele>
        <time>2011-08-14T10:07:28Z</time>
      </trkpt>
      <trkpt lat="59.5557284" lon="17.5459388">
        <ele>18.4023</ele>
        <time>2011-08-14T10:07:35Z</time>
      </trkpt>
      <trkpt lat="59.5562575" lon="17.5457147">
        <ele>19.8444</ele>
        <time>2011-08-14T10:07:42Z</time>
      </trkpt>
      <trkpt lat="59.5564897" lon="17.5456601">
        <ele>19.3638</ele>
        <time>2011-08-14T10:07:45Z</time>
      </trkpt>
      <trkpt lat="59.5568832" lon="17.5455819">
        <ele>18.4023</ele>
        <time>2011-08-14T10:07:50Z</time>
      </trkpt>
      <trkpt lat="59.5577124" lon="17.5454234">
        <ele>18.8831</ele>
        <time>2011-08-14T10:08:01Z</time>
      </trkpt>
      <trkpt lat="59.5581735" lon="17.545216">
        <ele>17.9218</ele>
        <time>2011-08-14T10:08:07Z</time>
      </trkpt>
      <trkpt lat="59.5588282" lon="17.5448507">
        <ele>16.4797</ele>
        <time>2011-08-14T10:08:15Z</time>
      </trkpt>
      <trkpt lat="59.5589888" lon="17.5447606">
        <ele>16.4797</ele>
        <time>2011-08-14T10:08:17Z</time>
      </trkpt>
      <trkpt lat="59.5593169" lon="17.5448233">
        <ele>15.999</ele>
        <time>2011-08-14T10:08:21Z</time>
      </trkpt>
      <trkpt lat="59.5594734" lon="17.5447795">
        <ele>15.999</ele>
        <time>2011-08-14T10:08:23Z</time>
      </trkpt>
      <trkpt lat="59.5596013" lon="17.5445845">
        <ele>15.999</ele>
        <time>2011-08-14T10:08:25Z</time>
      </trkpt>
      <trkpt lat="59.5600813" lon="17.5438545">
        <ele>15.5184</ele>
        <time>2011-08-14T10:08:32Z</time>
      </trkpt>
      <trkpt lat="59.5605306" lon="17.543347">
        <ele>14.557</ele>
        <time>2011-08-14T10:08:38Z</time>
      </trkpt>
      <trkpt lat="59.5608046" lon="17.5427451">
        <ele>13.1151</ele>
        <time>2011-08-14T10:08:43Z</time>
      </trkpt>
      <trkpt lat="59.5611328" lon="17.541735">
        <ele>13.5958</ele>
        <time>2011-08-14T10:08:50Z</time>
      </trkpt>
      <trkpt lat="59.561231" lon="17.5414505">
        <ele>13.1151</ele>
        <time>2011-08-14T10:08:52Z</time>
      </trkpt>
      <trkpt lat="59.5615214" lon="17.540507">
        <ele>12.1538</ele>
        <time>2011-08-14T10:08:58Z</time>
      </trkpt>
      <trkpt lat="59.5617225" lon="17.5399018">
        <ele>12.1538</ele>
        <time>2011-08-14T10:09:02Z</time>
      </trkpt>
      <trkpt lat="59.5620531" lon="17.5393455">
        <ele>12.1538</ele>
        <time>2011-08-14T10:09:07Z</time>
      </trkpt>
      <trkpt lat="59.5627152" lon="17.5386501">
        <ele>12.6344</ele>
        <time>2011-08-14T10:09:16Z</time>
      </trkpt>
      <trkpt lat="59.5634173" lon="17.5379065">
        <ele>12.6344</ele>
        <time>2011-08-14T10:09:26Z</time>
      </trkpt>
      <trkpt lat="59.5639444" lon="17.5372522">
        <ele>13.1151</ele>
        <time>2011-08-14T10:09:34Z</time>
      </trkpt>
      <trkpt lat="59.5644639" lon="17.5365962">
        <ele>13.5958</ele>
        <time>2011-08-14T10:09:42Z</time>
      </trkpt>
      <trkpt lat="59.5648998" lon="17.5360378">
        <ele>14.0764</ele>
        <time>2011-08-14T10:09:49Z</time>
      </trkpt>
      <trkpt lat="59.5654577" lon="17.5352961">
        <ele>14.0764</ele>
        <time>2011-08-14T10:09:58Z</time>
      </trkpt>
      <trkpt lat="59.5661112" lon="17.5343708">
        <ele>14.0764</ele>
        <time>2011-08-14T10:10:08Z</time>
      </trkpt>
      <trkpt lat="59.5667642" lon="17.5333941">
        <ele>14.0764</ele>
        <time>2011-08-14T10:10:18Z</time>
      </trkpt>
      <trkpt lat="59.5669539" lon="17.5331227">
        <ele>13.5958</ele>
        <time>2011-08-14T10:10:21Z</time>
      </trkpt>
      <trkpt lat="59.5672239" lon="17.5328471">
        <ele>13.5958</ele>
        <time>2011-08-14T10:10:25Z</time>
      </trkpt>
      <trkpt lat="59.5672741" lon="17.5327269">
        <ele>13.5958</ele>
        <time>2011-08-14T10:10:26Z</time>
      </trkpt>
      <trkpt lat="59.5677725" lon="17.5318275">
        <ele>14.0764</ele>
        <time>2011-08-14T10:10:34Z</time>
      </trkpt>
      <trkpt lat="59.568276" lon="17.5309924">
        <ele>15.0377</ele>
        <time>2011-08-14T10:10:42Z</time>
      </trkpt>
      <trkpt lat="59.568767" lon="17.5300969">
        <ele>16.9604</ele>
        <time>2011-08-14T10:10:51Z</time>
      </trkpt>
      <trkpt lat="59.5690027" lon="17.5298743">
        <ele>17.4412</ele>
        <time>2011-08-14T10:10:55Z</time>
      </trkpt>
      <trkpt lat="59.569184" lon="17.5297184">
        <ele>17.9218</ele>
        <time>2011-08-14T10:10:58Z</time>
      </trkpt>
      <trkpt lat="59.569231" lon="17.5296131">
        <ele>18.4023</ele>
        <time>2011-08-14T10:10:59Z</time>
      </trkpt>
      <trkpt lat="59.5696041" lon="17.5286895">
        <ele>19.8444</ele>
        <time>2011-08-14T10:11:07Z</time>
      </trkpt>
      <trkpt lat="59.5699839" lon="17.5279678">
        <ele>19.8444</ele>
        <time>2011-08-14T10:11:14Z</time>
      </trkpt>
      <trkpt lat="59.5704878" lon="17.5270618">
        <ele>21.2864</ele>
        <time>2011-08-14T10:11:23Z</time>
      </trkpt>
      <trkpt lat="59.5708842" lon="17.5263847">
        <ele>21.767</ele>
        <time>2011-08-14T10:11:30Z</time>
      </trkpt>
      <trkpt lat="59.5709957" lon="17.5262042">
        <ele>22.2476</ele>
        <time>2011-08-14T10:11:32Z</time>
      </trkpt>
      <trkpt lat="59.5714099" lon="17.5253261">
        <ele>21.2864</ele>
        <time>2011-08-14T10:11:39Z</time>
      </trkpt>
      <trkpt lat="59.5716192" lon="17.5246635">
        <ele>20.325</ele>
        <time>2011-08-14T10:11:43Z</time>
      </trkpt>
      <trkpt lat="59.5719645" lon="17.523416">
        <ele>19.3638</ele>
        <time>2011-08-14T10:11:50Z</time>
      </trkpt>
      <trkpt lat="59.5722836" lon="17.522437">
        <ele>19.3638</ele>
        <time>2011-08-14T10:11:56Z</time>
      </trkpt>
      <trkpt lat="59.5726982" lon="17.5214741">
        <ele>19.8444</ele>
        <time>2011-08-14T10:12:03Z</time>
      </trkpt>
      <trkpt lat="59.5731622" lon="17.5204307">
        <ele>19.8444</ele>
        <time>2011-08-14T10:12:11Z</time>
      </trkpt>
      <trkpt lat="59.5736222" lon="17.5194042">
        <ele>19.3638</ele>
        <time>2011-08-14T10:12:19Z</time>
      </trkpt>
      <trkpt lat="59.574101" lon="17.5184666">
        <ele>19.3638</ele>
        <time>2011-08-14T10:12:27Z</time>
      </trkpt>
      <trkpt lat="59.5745439" lon="17.5176166">
        <ele>20.8057</ele>
        <time>2011-08-14T10:12:35Z</time>
      </trkpt>
      <trkpt lat="59.5750005" lon="17.5167815">
        <ele>21.2864</ele>
        <time>2011-08-14T10:12:43Z</time>
      </trkpt>
      <trkpt lat="59.5754136" lon="17.5160257">
        <ele>21.767</ele>
        <time>2011-08-14T10:12:50Z</time>
      </trkpt>
      <trkpt lat="59.5760574" lon="17.5148099">
        <ele>22.2476</ele>
        <time>2011-08-14T10:13:01Z</time>
      </trkpt>
      <trkpt lat="59.5761875" lon="17.5145338">
        <ele>22.2476</ele>
        <time>2011-08-14T10:13:04Z</time>
      </trkpt>
      <trkpt lat="59.576239" lon="17.5144142">
        <ele>22.2476</ele>
        <time>2011-08-14T10:13:06Z</time>
      </trkpt>
      <trkpt lat="59.5763511" lon="17.5141978">
        <ele>23.209</ele>
        <time>2011-08-14T10:13:09Z</time>
      </trkpt>
      <trkpt lat="59.5766686" lon="17.5136168">
        <ele>23.6896</ele>
        <time>2011-08-14T10:13:16Z</time>
      </trkpt>
      <trkpt lat="59.5770777" lon="17.5128638">
        <ele>23.6896</ele>
        <time>2011-08-14T10:13:24Z</time>
      </trkpt>
      <trkpt lat="59.5774887" lon="17.5123203">
        <ele>24.1703</ele>
        <time>2011-08-14T10:13:31Z</time>
      </trkpt>
      <trkpt lat="59.5778958" lon="17.5120065">
        <ele>23.6896</ele>
        <time>2011-08-14T10:13:37Z</time>
      </trkpt>
      <trkpt lat="59.5782901" lon="17.5119049">
        <ele>21.2864</ele>
        <time>2011-08-14T10:13:42Z</time>
      </trkpt>
      <trkpt lat="59.5785791" lon="17.5117977">
        <ele>20.8057</ele>
        <time>2011-08-14T10:13:45Z</time>
      </trkpt>
      <trkpt lat="59.5789444" lon="17.5114387">
        <ele>22.7283</ele>
        <time>2011-08-14T10:13:50Z</time>
      </trkpt>
      <trkpt lat="59.5794111" lon="17.5104934">
        <ele>27.0543</ele>
        <time>2011-08-14T10:13:58Z</time>
      </trkpt>
      <trkpt lat="59.5797076" lon="17.5100373">
        <ele>28.4962</ele>
        <time>2011-08-14T10:14:03Z</time>
      </trkpt>
      <trkpt lat="59.5802046" lon="17.5096662">
        <ele>28.9769</ele>
        <time>2011-08-14T10:14:10Z</time>
      </trkpt>
      <trkpt lat="59.5805085" lon="17.5094893">
        <ele>28.4962</ele>
        <time>2011-08-14T10:14:14Z</time>
      </trkpt>
      <trkpt lat="59.5810833" lon="17.509129">
        <ele>28.0155</ele>
        <time>2011-08-14T10:14:21Z</time>
      </trkpt>
      <trkpt lat="59.5817473" lon="17.5087127">
        <ele>28.0155</ele>
        <time>2011-08-14T10:14:29Z</time>
      </trkpt>
      <trkpt lat="59.5825497" lon="17.5082053">
        <ele>28.4962</ele>
        <time>2011-08-14T10:14:39Z</time>
      </trkpt>
      <trkpt lat="59.5831009" lon="17.5077287">
        <ele>28.0155</ele>
        <time>2011-08-14T10:14:46Z</time>
      </trkpt>
      <trkpt lat="59.5837006" lon="17.5071168">
        <ele>27.0543</ele>
        <time>2011-08-14T10:14:54Z</time>
      </trkpt>
      <trkpt lat="59.5840036" lon="17.5067617">
        <ele>25.6123</ele>
        <time>2011-08-14T10:14:59Z</time>
      </trkpt>
      <trkpt lat="59.5841866" lon="17.5067243">
        <ele>25.1317</ele>
        <time>2011-08-14T10:15:03Z</time>
      </trkpt>
      <trkpt lat="59.5842322" lon="17.5067692">
        <ele>24.651</ele>
        <time>2011-08-14T10:15:04Z</time>
      </trkpt>
      <trkpt lat="59.5847251" lon="17.5072289">
        <ele>24.651</ele>
        <time>2011-08-14T10:15:13Z</time>
      </trkpt>
      <trkpt lat="59.5852997" lon="17.5075907">
        <ele>27.0543</ele>
        <time>2011-08-14T10:15:22Z</time>
      </trkpt>
      <trkpt lat="59.5858862" lon="17.5078665">
        <ele>27.0543</ele>
        <time>2011-08-14T10:15:30Z</time>
      </trkpt>
      <trkpt lat="59.5865569" lon="17.5081745">
        <ele>26.0929</ele>
        <time>2011-08-14T10:15:38Z</time>
      </trkpt>
      <trkpt lat="59.5872253" lon="17.5084839">
        <ele>23.6896</ele>
        <time>2011-08-14T10:15:45Z</time>
      </trkpt>
      <trkpt lat="59.5881662" lon="17.5089198">
        <ele>21.2864</ele>
        <time>2011-08-14T10:15:54Z</time>
      </trkpt>
      <trkpt lat="59.5893075" lon="17.5094393">
        <ele>20.325</ele>
        <time>2011-08-14T10:16:05Z</time>
      </trkpt>
      <trkpt lat="59.5903658" lon="17.5099249">
        <ele>20.8057</ele>
        <time>2011-08-14T10:16:16Z</time>
      </trkpt>
      <trkpt lat="59.5911988" lon="17.5102473">
        <ele>21.2864</ele>
        <time>2011-08-14T10:16:25Z</time>
      </trkpt>
      <trkpt lat="59.5921244" lon="17.5104346">
        <ele>21.767</ele>
        <time>2011-08-14T10:16:35Z</time>
      </trkpt>
      <trkpt lat="59.5928414" lon="17.5106296">
        <ele>23.209</ele>
        <time>2011-08-14T10:16:43Z</time>
      </trkpt>
      <trkpt lat="59.5933165" lon="17.5108447">
        <ele>24.651</ele>
        <time>2011-08-14T10:16:49Z</time>
      </trkpt>
      <trkpt lat="59.5937963" lon="17.510939">
        <ele>25.6123</ele>
        <time>2011-08-14T10:16:55Z</time>
      </trkpt>
      <trkpt lat="59.5944033" lon="17.5108842">
        <ele>25.6123</ele>
        <time>2011-08-14T10:17:02Z</time>
      </trkpt>
      <trkpt lat="59.5950418" lon="17.5107613">
        <ele>25.6123</ele>
        <time>2011-08-14T10:17:09Z</time>
      </trkpt>
      <trkpt lat="59.5955096" lon="17.5105745">
        <ele>25.6123</ele>
        <time>2011-08-14T10:17:14Z</time>
      </trkpt>
      <trkpt lat="59.5965256" lon="17.5101086">
        <ele>27.0543</ele>
        <time>2011-08-14T10:17:25Z</time>
      </trkpt>
      <trkpt lat="59.5972703" lon="17.5097903">
        <ele>27.0543</ele>
        <time>2011-08-14T10:17:33Z</time>
      </trkpt>
      <trkpt lat="59.5981718" lon="17.5094004">
        <ele>28.9769</ele>
        <time>2011-08-14T10:17:43Z</time>
      </trkpt>
      <trkpt lat="59.5988758" lon="17.5091067">
        <ele>29.9381</ele>
        <time>2011-08-14T10:17:51Z</time>
      </trkpt>
      <trkpt lat="59.5994781" lon="17.5088316">
        <ele>31.3801</ele>
        <time>2011-08-14T10:17:58Z</time>
      </trkpt>
      <trkpt lat="59.5999951" lon="17.5085446">
        <ele>31.8607</ele>
        <time>2011-08-14T10:18:04Z</time>
      </trkpt>
      <trkpt lat="59.6007339" lon="17.5080295">
        <ele>33.7834</ele>
        <time>2011-08-14T10:18:13Z</time>
      </trkpt>
      <trkpt lat="59.6014576" lon="17.5075522">
        <ele>34.2642</ele>
        <time>2011-08-14T10:18:22Z</time>
      </trkpt>
      <trkpt lat="59.6020926" lon="17.5072157">
        <ele>34.2642</ele>
        <time>2011-08-14T10:18:30Z</time>
      </trkpt>
      <trkpt lat="59.6026529" lon="17.5070427">
        <ele>34.2642</ele>
        <time>2011-08-14T10:18:37Z</time>
      </trkpt>
      <trkpt lat="59.603256" lon="17.5070584">
        <ele>32.3416</ele>
        <time>2011-08-14T10:18:44Z</time>
      </trkpt>
      <trkpt lat="59.6039901" lon="17.5070331">
        <ele>30.4188</ele>
        <time>2011-08-14T10:18:52Z</time>
      </trkpt>
      <trkpt lat="59.604564" lon="17.5068388">
        <ele>28.9769</ele>
        <time>2011-08-14T10:18:58Z</time>
      </trkpt>
      <trkpt lat="59.6051302" lon="17.5064508">
        <ele>27.5349</ele>
        <time>2011-08-14T10:19:04Z</time>
      </trkpt>
      <trkpt lat="59.6055949" lon="17.5059533">
        <ele>26.0929</ele>
        <time>2011-08-14T10:19:09Z</time>
      </trkpt>
      <trkpt lat="59.6062139" lon="17.5051221">
        <ele>25.6123</ele>
        <time>2011-08-14T10:19:16Z</time>
      </trkpt>
      <trkpt lat="59.6067806" lon="17.5042325">
        <ele>25.1317</ele>
        <time>2011-08-14T10:19:23Z</time>
      </trkpt>
      <trkpt lat="59.6072115" lon="17.5033614">
        <ele>24.1703</ele>
        <time>2011-08-14T10:19:29Z</time>
      </trkpt>
      <trkpt lat="59.6076617" lon="17.5025513">
        <ele>23.209</ele>
        <time>2011-08-14T10:19:35Z</time>
      </trkpt>
      <trkpt lat="59.6082638" lon="17.5018232">
        <ele>22.7283</ele>
        <time>2011-08-14T10:19:42Z</time>
      </trkpt>
      <trkpt lat="59.6087681" lon="17.5013881">
        <ele>21.2864</ele>
        <time>2011-08-14T10:19:48Z</time>
      </trkpt>
      <trkpt lat="59.6093249" lon="17.5010189">
        <ele>22.2476</ele>
        <time>2011-08-14T10:19:55Z</time>
      </trkpt>
      <trkpt lat="59.6097859" lon="17.5008029">
        <ele>23.6896</ele>
        <time>2011-08-14T10:20:01Z</time>
      </trkpt>
      <trkpt lat="59.6104642" lon="17.5007224">
        <ele>25.6123</ele>
        <time>2011-08-14T10:20:10Z</time>
      </trkpt>
      <trkpt lat="59.611005" lon="17.5006615">
        <ele>25.6123</ele>
        <time>2011-08-14T10:20:17Z</time>
      </trkpt>
      <trkpt lat="59.6117058" lon="17.5005619">
        <ele>24.1703</ele>
        <time>2011-08-14T10:20:25Z</time>
      </trkpt>
      <trkpt lat="59.6128266" lon="17.5004097">
        <ele>22.7283</ele>
        <time>2011-08-14T10:20:37Z</time>
      </trkpt>
      <trkpt lat="59.6136067" lon="17.5003039">
        <ele>22.7283</ele>
        <time>2011-08-14T10:20:46Z</time>
      </trkpt>
      <trkpt lat="59.614334" lon="17.5001611">
        <ele>23.6896</ele>
        <time>2011-08-14T10:20:55Z</time>
      </trkpt>
      <trkpt lat="59.6149543" lon="17.4999232">
        <ele>24.651</ele>
        <time>2011-08-14T10:21:03Z</time>
      </trkpt>
      <trkpt lat="59.615752" lon="17.4995487">
        <ele>26.0929</ele>
        <time>2011-08-14T10:21:13Z</time>
      </trkpt>
      <trkpt lat="59.6159873" lon="17.4994385">
        <ele>27.0543</ele>
        <time>2011-08-14T10:21:16Z</time>
      </trkpt>
      <trkpt lat="59.6163592" lon="17.4992426">
        <ele>27.5349</ele>
        <time>2011-08-14T10:21:21Z</time>
      </trkpt>
      <trkpt lat="59.616913" lon="17.4989333">
        <ele>28.4962</ele>
        <time>2011-08-14T10:21:29Z</time>
      </trkpt>
      <trkpt lat="59.6175718" lon="17.498496">
        <ele>30.4188</ele>
        <time>2011-08-14T10:21:39Z</time>
      </trkpt>
      <trkpt lat="59.6182362" lon="17.4980751">
        <ele>31.3801</ele>
        <time>2011-08-14T10:21:49Z</time>
      </trkpt>
      <trkpt lat="59.6187813" lon="17.4978292">
        <ele>32.8223</ele>
        <time>2011-08-14T10:21:57Z</time>
      </trkpt>
      <trkpt lat="59.6193112" lon="17.4977087">
        <ele>34.2642</ele>
        <time>2011-08-14T10:22:05Z</time>
      </trkpt>
      <trkpt lat="59.61963" lon="17.4976804">
        <ele>35.2255</ele>
        <time>2011-08-14T10:22:10Z</time>
      </trkpt>
      <trkpt lat="59.6201241" lon="17.4976624">
        <ele>35.2255</ele>
        <time>2011-08-14T10:22:18Z</time>
      </trkpt>
      <trkpt lat="59.62041" lon="17.4976639">
        <ele>33.7834</ele>
        <time>2011-08-14T10:22:23Z</time>
      </trkpt>
      <trkpt lat="59.6208618" lon="17.497619">
        <ele>31.8607</ele>
        <time>2011-08-14T10:22:31Z</time>
      </trkpt>
      <trkpt lat="59.621" lon="17.4975851">
        <ele>30.8995</ele>
        <time>2011-08-14T10:22:34Z</time>
      </trkpt>
      <trkpt lat="59.6210611" lon="17.4975921">
        <ele>31.8607</ele>
        <time>2011-08-14T10:22:38Z</time>
      </trkpt>
      <trkpt lat="59.6210606" lon="17.4975845">
        <ele>33.3029</ele>
        <time>2011-08-14T10:22:48Z</time>
      </trkpt>
      <trkpt lat="59.6210554" lon="17.4975705">
        <ele>32.8223</ele>
        <time>2011-08-14T10:23:04Z</time>
      </trkpt>
      <trkpt lat="59.6211357" lon="17.4975389">
        <ele>37.6287</ele>
        <time>2011-08-14T10:26:19Z</time>
      </trkpt>
      <trkpt lat="59.6213195" lon="17.4974764">
        <ele>36.1868</ele>
        <time>2011-08-14T10:26:23Z</time>
      </trkpt>
      <trkpt lat="59.6216262" lon="17.4973345">
        <ele>35.7061</ele>
        <time>2011-08-14T10:26:29Z</time>
      </trkpt>
      <trkpt lat="59.6219851" lon="17.4971271">
        <ele>36.6675</ele>
        <time>2011-08-14T10:26:36Z</time>
      </trkpt>
      <trkpt lat="59.622094" lon="17.4970556">
        <ele>36.6675</ele>
        <time>2011-08-14T10:26:38Z</time>
      </trkpt>
      <trkpt lat="59.6225236" lon="17.4967164">
        <ele>36.1868</ele>
        <time>2011-08-14T10:26:45Z</time>
      </trkpt>
      <trkpt lat="59.6229788" lon="17.4963675">
        <ele>36.1868</ele>
        <time>2011-08-14T10:26:52Z</time>
      </trkpt>
      <trkpt lat="59.6235039" lon="17.495965">
        <ele>34.2642</ele>
        <time>2011-08-14T10:26:59Z</time>
      </trkpt>
      <trkpt lat="59.6241094" lon="17.4955004">
        <ele>30.8995</ele>
        <time>2011-08-14T10:27:06Z</time>
      </trkpt>
      <trkpt lat="59.6245285" lon="17.4950706">
        <ele>28.0155</ele>
        <time>2011-08-14T10:27:11Z</time>
      </trkpt>
      <trkpt lat="59.6249058" lon="17.4943817">
        <ele>24.651</ele>
        <time>2011-08-14T10:27:16Z</time>
      </trkpt>
      <trkpt lat="59.6253036" lon="17.4934166">
        <ele>21.767</ele>
        <time>2011-08-14T10:27:22Z</time>
      </trkpt>
      <trkpt lat="59.6254001" lon="17.4931179">
        <ele>19.8444</ele>
        <time>2011-08-14T10:27:24Z</time>
      </trkpt>
      <trkpt lat="59.62558" lon="17.4929054">
        <ele>17.4412</ele>
        <time>2011-08-14T10:27:27Z</time>
      </trkpt>
      <trkpt lat="59.625661" lon="17.4931091">
        <ele>15.999</ele>
        <time>2011-08-14T10:27:29Z</time>
      </trkpt>
      <trkpt lat="59.6256273" lon="17.4933741">
        <ele>15.5184</ele>
        <time>2011-08-14T10:27:31Z</time>
      </trkpt>
      <trkpt lat="59.6255428" lon="17.4936195">
        <ele>14.557</ele>
        <time>2011-08-14T10:27:33Z</time>
      </trkpt>
      <trkpt lat="59.625429" lon="17.4944292">
        <ele>13.5958</ele>
        <time>2011-08-14T10:27:38Z</time>
      </trkpt>
      <trkpt lat="59.625475" lon="17.4947959">
        <ele>12.6344</ele>
        <time>2011-08-14T10:27:40Z</time>
      </trkpt>
      <trkpt lat="59.6255808" lon="17.4953069">
        <ele>12.1538</ele>
        <time>2011-08-14T10:27:43Z</time>
      </trkpt>
      <trkpt lat="59.6258675" lon="17.4959418">
        <ele>10.7118</ele>
        <time>2011-08-14T10:27:48Z</time>
      </trkpt>
      <trkpt lat="59.6265045" lon="17.4965983">
        <ele>7.82788</ele>
        <time>2011-08-14T10:27:56Z</time>
      </trkpt>
      <trkpt lat="59.6269702" lon="17.4971525">
        <ele>7.34717</ele>
        <time>2011-08-14T10:28:02Z</time>
      </trkpt>
      <trkpt lat="59.6272079" lon="17.4977005">
        <ele>7.82788</ele>
        <time>2011-08-14T10:28:06Z</time>
      </trkpt>
      <trkpt lat="59.6275688" lon="17.4986366">
        <ele>8.30859</ele>
        <time>2011-08-14T10:28:13Z</time>
      </trkpt>
      <trkpt lat="59.6278527" lon="17.4991467">
        <ele>9.75061</ele>
        <time>2011-08-14T10:28:18Z</time>
      </trkpt>
      <trkpt lat="59.6282028" lon="17.499486">
        <ele>10.2312</ele>
        <time>2011-08-14T10:28:23Z</time>
      </trkpt>
      <trkpt lat="59.6286406" lon="17.499798">
        <ele>9.75061</ele>
        <time>2011-08-14T10:28:29Z</time>
      </trkpt>
      <trkpt lat="59.6288572" lon="17.5000037">
        <ele>8.78918</ele>
        <time>2011-08-14T10:28:32Z</time>
      </trkpt>
      <trkpt lat="59.6292157" lon="17.5001627">
        <ele>8.78918</ele>
        <time>2011-08-14T10:28:36Z</time>
      </trkpt>
      <trkpt lat="59.6294151" lon="17.5001725">
        <ele>9.75061</ele>
        <time>2011-08-14T10:28:38Z</time>
      </trkpt>
      <trkpt lat="59.6298103" lon="17.5003578">
        <ele>9.75061</ele>
        <time>2011-08-14T10:28:42Z</time>
      </trkpt>
      <trkpt lat="59.6300794" lon="17.5007148">
        <ele>8.78918</ele>
        <time>2011-08-14T10:28:45Z</time>
      </trkpt>
      <trkpt lat="59.6303369" lon="17.5014068">
        <ele>9.2699</ele>
        <time>2011-08-14T10:28:49Z</time>
      </trkpt>
      <trkpt lat="59.6304267" lon="17.5019882">
        <ele>9.2699</ele>
        <time>2011-08-14T10:28:52Z</time>
      </trkpt>
      <trkpt lat="59.6303796" lon="17.5023554">
        <ele>9.2699</ele>
        <time>2011-08-14T10:28:54Z</time>
      </trkpt>
      <trkpt lat="59.6303346" lon="17.5025139">
        <ele>9.2699</ele>
        <time>2011-08-14T10:28:55Z</time>
      </trkpt>
      <trkpt lat="59.6301686" lon="17.5031034">
        <ele>10.7118</ele>
        <time>2011-08-14T10:28:59Z</time>
      </trkpt>
      <trkpt lat="59.6301393" lon="17.5037981">
        <ele>11.6732</ele>
        <time>2011-08-14T10:29:03Z</time>
      </trkpt>
      <trkpt lat="59.6301615" lon="17.5039954">
        <ele>11.1925</ele>
        <time>2011-08-14T10:29:04Z</time>
      </trkpt>
      <trkpt lat="59.6303966" lon="17.5055612">
        <ele>10.7118</ele>
        <time>2011-08-14T10:29:12Z</time>
      </trkpt>
      <trkpt lat="59.6305398" lon="17.5065849">
        <ele>12.1538</ele>
        <time>2011-08-14T10:29:18Z</time>
      </trkpt>
      <trkpt lat="59.6307153" lon="17.5077779">
        <ele>14.0764</ele>
        <time>2011-08-14T10:29:25Z</time>
      </trkpt>
      <trkpt lat="59.630855" lon="17.5087449">
        <ele>13.5958</ele>
        <time>2011-08-14T10:29:30Z</time>
      </trkpt>
      <trkpt lat="59.6310362" lon="17.5098635">
        <ele>14.557</ele>
        <time>2011-08-14T10:29:36Z</time>
      </trkpt>
      <trkpt lat="59.6310809" lon="17.5100285">
        <ele>14.557</ele>
        <time>2011-08-14T10:29:37Z</time>
      </trkpt>
      <trkpt lat="59.6314306" lon="17.5108405">
        <ele>15.0377</ele>
        <time>2011-08-14T10:29:43Z</time>
      </trkpt>
      <trkpt lat="59.6318114" lon="17.5117327">
        <ele>15.5184</ele>
        <time>2011-08-14T10:29:50Z</time>
      </trkpt>
      <trkpt lat="59.6321165" lon="17.5125808">
        <ele>16.4797</ele>
        <time>2011-08-14T10:29:56Z</time>
      </trkpt>
      <trkpt lat="59.6323597" lon="17.5134026">
        <ele>16.9604</ele>
        <time>2011-08-14T10:30:02Z</time>
      </trkpt>
      <trkpt lat="59.6325049" lon="17.5137916">
        <ele>16.4797</ele>
        <time>2011-08-14T10:30:05Z</time>
      </trkpt>
      <trkpt lat="59.6329131" lon="17.5144593">
        <ele>14.557</ele>
        <time>2011-08-14T10:30:11Z</time>
      </trkpt>
      <trkpt lat="59.6335327" lon="17.5153311">
        <ele>13.5958</ele>
        <time>2011-08-14T10:30:19Z</time>
      </trkpt>
      <trkpt lat="59.6339018" lon="17.5157708">
        <ele>13.1151</ele>
        <time>2011-08-14T10:30:24Z</time>
      </trkpt>
      <trkpt lat="59.6344538" lon="17.5163814">
        <ele>12.6344</ele>
        <time>2011-08-14T10:30:31Z</time>
      </trkpt>
      <trkpt lat="59.6348239" lon="17.5169318">
        <ele>12.6344</ele>
        <time>2011-08-14T10:30:36Z</time>
      </trkpt>
      <trkpt lat="59.6351962" lon="17.5177796">
        <ele>12.6344</ele>
        <time>2011-08-14T10:30:42Z</time>
      </trkpt>
      <trkpt lat="59.6355711" lon="17.5188716">
        <ele>12.6344</ele>
        <time>2011-08-14T10:30:49Z</time>
      </trkpt>
      <trkpt lat="59.6356854" lon="17.5195383">
        <ele>12.6344</ele>
        <time>2011-08-14T10:30:53Z</time>
      </trkpt>
      <trkpt lat="59.6357757" lon="17.5207665">
        <ele>13.1151</ele>
        <time>2011-08-14T10:31:00Z</time>
      </trkpt>
      <trkpt lat="59.6358239" lon="17.5212803">
        <ele>13.5958</ele>
        <time>2011-08-14T10:31:03Z</time>
      </trkpt>
      <trkpt lat="59.6360072" lon="17.5218319">
        <ele>14.0764</ele>
        <time>2011-08-14T10:31:07Z</time>
      </trkpt>
      <trkpt lat="59.6361438" lon="17.5220082">
        <ele>14.0764</ele>
        <time>2011-08-14T10:31:09Z</time>
      </trkpt>
      <trkpt lat="59.636608" lon="17.5223718">
        <ele>15.0377</ele>
        <time>2011-08-14T10:31:15Z</time>
      </trkpt>
      <trkpt lat="59.6370567" lon="17.5228552">
        <ele>14.557</ele>
        <time>2011-08-14T10:31:21Z</time>
      </trkpt>
      <trkpt lat="59.637596" lon="17.5234895">
        <ele>15.5184</ele>
        <time>2011-08-14T10:31:29Z</time>
      </trkpt>
      <trkpt lat="59.6381008" lon="17.524006">
        <ele>15.5184</ele>
        <time>2011-08-14T10:31:37Z</time>
      </trkpt>
      <trkpt lat="59.6385407" lon="17.52454">
        <ele>14.557</ele>
        <time>2011-08-14T10:31:45Z</time>
      </trkpt>
      <trkpt lat="59.6389232" lon="17.5249887">
        <ele>14.557</ele>
        <time>2011-08-14T10:31:51Z</time>
      </trkpt>
      <trkpt lat="59.6395328" lon="17.5258016">
        <ele>13.5958</ele>
        <time>2011-08-14T10:32:00Z</time>
      </trkpt>
      <trkpt lat="59.6402488" lon="17.5268693">
        <ele>13.5958</ele>
        <time>2011-08-14T10:32:11Z</time>
      </trkpt>
      <trkpt lat="59.6407969" lon="17.5277731">
        <ele>14.0764</ele>
        <time>2011-08-14T10:32:20Z</time>
      </trkpt>
      <trkpt lat="59.6412417" lon="17.5284588">
        <ele>14.557</ele>
        <time>2011-08-14T10:32:27Z</time>
      </trkpt>
      <trkpt lat="59.6419108" lon="17.5293561">
        <ele>14.557</ele>
        <time>2011-08-14T10:32:37Z</time>
      </trkpt>
      <trkpt lat="59.6424206" lon="17.5300306">
        <ele>15.5184</ele>
        <time>2011-08-14T10:32:45Z</time>
      </trkpt>
      <trkpt lat="59.6429562" lon="17.5307371">
        <ele>17.4412</ele>
        <time>2011-08-14T10:32:54Z</time>
      </trkpt>
      <trkpt lat="59.6434521" lon="17.5313918">
        <ele>20.325</ele>
        <time>2011-08-14T10:33:03Z</time>
      </trkpt>
      <trkpt lat="59.6439469" lon="17.5320475">
        <ele>23.209</ele>
        <time>2011-08-14T10:33:13Z</time>
      </trkpt>
      <trkpt lat="59.6443679" lon="17.5326081">
        <ele>26.0929</ele>
        <time>2011-08-14T10:33:22Z</time>
      </trkpt>
      <trkpt lat="59.6446853" lon="17.5329937">
        <ele>26.5736</ele>
        <time>2011-08-14T10:33:28Z</time>
      </trkpt>
      <trkpt lat="59.645221" lon="17.5335811">
        <ele>27.0543</ele>
        <time>2011-08-14T10:33:38Z</time>
      </trkpt>
      <trkpt lat="59.6458086" lon="17.534195">
        <ele>26.5736</ele>
        <time>2011-08-14T10:33:48Z</time>
      </trkpt>
      <trkpt lat="59.6463923" lon="17.5348015">
        <ele>27.5349</ele>
        <time>2011-08-14T10:33:58Z</time>
      </trkpt>
      <trkpt lat="59.646855" lon="17.5352931">
        <ele>28.9769</ele>
        <time>2011-08-14T10:34:06Z</time>
      </trkpt>
      <trkpt lat="59.647429" lon="17.535958">
        <ele>31.8607</ele>
        <time>2011-08-14T10:34:16Z</time>
      </trkpt>
      <trkpt lat="59.6479345" lon="17.5367065">
        <ele>32.3416</ele>
        <time>2011-08-14T10:34:26Z</time>
      </trkpt>
      <trkpt lat="59.6483982" lon="17.5374157">
        <ele>33.3029</ele>
        <time>2011-08-14T10:34:35Z</time>
      </trkpt>
      <trkpt lat="59.6488004" lon="17.5379878">
        <ele>34.2642</ele>
        <time>2011-08-14T10:34:43Z</time>
      </trkpt>
      <trkpt lat="59.6491449" lon="17.5384643">
        <ele>35.2255</ele>
        <time>2011-08-14T10:34:50Z</time>
      </trkpt>
      <trkpt lat="59.6495696" lon="17.5391586">
        <ele>36.1868</ele>
        <time>2011-08-14T10:34:59Z</time>
      </trkpt>
      <trkpt lat="59.6499477" lon="17.5398443">
        <ele>37.1481</ele>
        <time>2011-08-14T10:35:07Z</time>
      </trkpt>
      <trkpt lat="59.6502608" lon="17.540454">
        <ele>38.1094</ele>
        <time>2011-08-14T10:35:14Z</time>
      </trkpt>
      <trkpt lat="59.6505857" lon="17.5411072">
        <ele>39.0707</ele>
        <time>2011-08-14T10:35:22Z</time>
      </trkpt>
      <trkpt lat="59.6508845" lon="17.5417188">
        <ele>40.5128</ele>
        <time>2011-08-14T10:35:30Z</time>
      </trkpt>
      <trkpt lat="59.6511907" lon="17.5423271">
        <ele>41.9547</ele>
        <time>2011-08-14T10:35:38Z</time>
      </trkpt>
      <trkpt lat="59.6514725" lon="17.5429208">
        <ele>42.916</ele>
        <time>2011-08-14T10:35:45Z</time>
      </trkpt>
      <trkpt lat="59.6518577" lon="17.5437486">
        <ele>43.8773</ele>
        <time>2011-08-14T10:35:54Z</time>
      </trkpt>
      <trkpt lat="59.6522382" lon="17.5447654">
        <ele>43.8773</ele>
        <time>2011-08-14T10:36:03Z</time>
      </trkpt>
      <trkpt lat="59.6525505" lon="17.5457894">
        <ele>44.8386</ele>
        <time>2011-08-14T10:36:12Z</time>
      </trkpt>
      <trkpt lat="59.6527553" lon="17.5466152">
        <ele>46.2806</ele>
        <time>2011-08-14T10:36:19Z</time>
      </trkpt>
      <trkpt lat="59.652912" lon="17.5473855">
        <ele>45.7999</ele>
        <time>2011-08-14T10:36:25Z</time>
      </trkpt>
      <trkpt lat="59.6530556" lon="17.5483035">
        <ele>45.3192</ele>
        <time>2011-08-14T10:36:32Z</time>
      </trkpt>
      <trkpt lat="59.6531725" lon="17.5493493">
        <ele>43.8773</ele>
        <time>2011-08-14T10:36:40Z</time>
      </trkpt>
      <trkpt lat="59.6532421" lon="17.5504366">
        <ele>43.3966</ele>
        <time>2011-08-14T10:36:48Z</time>
      </trkpt>
      <trkpt lat="59.6532611" lon="17.5511385">
        <ele>42.4354</ele>
        <time>2011-08-14T10:36:53Z</time>
      </trkpt>
      <trkpt lat="59.6532445" lon="17.5521605">
        <ele>42.4354</ele>
        <time>2011-08-14T10:37:00Z</time>
      </trkpt>
      <trkpt lat="59.6531921" lon="17.5532301">
        <ele>42.4354</ele>
        <time>2011-08-14T10:37:07Z</time>
      </trkpt>
      <trkpt lat="59.653056" lon="17.5545045">
        <ele>42.4354</ele>
        <time>2011-08-14T10:37:15Z</time>
      </trkpt>
      <trkpt lat="59.6528338" lon="17.5558389">
        <ele>40.9934</ele>
        <time>2011-08-14T10:37:23Z</time>
      </trkpt>
      <trkpt lat="59.652564" lon="17.5570437">
        <ele>34.7449</ele>
        <time>2011-08-14T10:37:30Z</time>
      </trkpt>
      <trkpt lat="59.6522166" lon="17.5582345">
        <ele>32.3416</ele>
        <time>2011-08-14T10:37:37Z</time>
      </trkpt>
      <trkpt lat="59.6517996" lon="17.5593662">
        <ele>30.4188</ele>
        <time>2011-08-14T10:37:44Z</time>
      </trkpt>
      <trkpt lat="59.6512892" lon="17.5604312">
        <ele>28.9769</ele>
        <time>2011-08-14T10:37:51Z</time>
      </trkpt>
      <trkpt lat="59.6507259" lon="17.561364">
        <ele>27.0543</ele>
        <time>2011-08-14T10:37:58Z</time>
      </trkpt>
      <trkpt lat="59.6500602" lon="17.5622176">
        <ele>25.1317</ele>
        <time>2011-08-14T10:38:06Z</time>
      </trkpt>
      <trkpt lat="59.6494453" lon="17.5628293">
        <ele>23.6896</ele>
        <time>2011-08-14T10:38:13Z</time>
      </trkpt>
      <trkpt lat="59.6487589" lon="17.563477">
        <ele>22.7283</ele>
        <time>2011-08-14T10:38:21Z</time>
      </trkpt>
      <trkpt lat="59.6481068" lon="17.5640867">
        <ele>21.2864</ele>
        <time>2011-08-14T10:38:29Z</time>
      </trkpt>
      <trkpt lat="59.6475827" lon="17.5645928">
        <ele>21.2864</ele>
        <time>2011-08-14T10:38:36Z</time>
      </trkpt>
      <trkpt lat="59.6471952" lon="17.564959">
        <ele>22.7283</ele>
        <time>2011-08-14T10:38:42Z</time>
      </trkpt>
      <trkpt lat="59.6466736" lon="17.5654522">
        <ele>24.1703</ele>
        <time>2011-08-14T10:38:51Z</time>
      </trkpt>
      <trkpt lat="59.646282" lon="17.5658262">
        <ele>24.1703</ele>
        <time>2011-08-14T10:38:59Z</time>
      </trkpt>
      <trkpt lat="59.6458821" lon="17.5662056">
        <ele>25.6123</ele>
        <time>2011-08-14T10:39:07Z</time>
      </trkpt>
      <trkpt lat="59.6454675" lon="17.5666166">
        <ele>28.0155</ele>
        <time>2011-08-14T10:39:16Z</time>
      </trkpt>
      <trkpt lat="59.6451667" lon="17.5669058">
        <ele>30.4188</ele>
        <time>2011-08-14T10:39:23Z</time>
      </trkpt>
      <trkpt lat="59.6449849" lon="17.5670802">
        <ele>31.3801</ele>
        <time>2011-08-14T10:39:28Z</time>
      </trkpt>
      <trkpt lat="59.644717" lon="17.5673382">
        <ele>33.7834</ele>
        <time>2011-08-14T10:39:34Z</time>
      </trkpt>
      <trkpt lat="59.6443275" lon="17.5677147">
        <ele>35.2255</ele>
        <time>2011-08-14T10:39:43Z</time>
      </trkpt>
      <trkpt lat="59.643931" lon="17.5681653">
        <ele>36.6675</ele>
        <time>2011-08-14T10:39:52Z</time>
      </trkpt>
      <trkpt lat="59.6434972" lon="17.5687172">
        <ele>36.6675</ele>
        <time>2011-08-14T10:40:01Z</time>
      </trkpt>
      <trkpt lat="59.643103" lon="17.569266">
        <ele>34.7449</ele>
        <time>2011-08-14T10:40:10Z</time>
      </trkpt>
      <trkpt lat="59.6427372" lon="17.5697737">
        <ele>35.2255</ele>
        <time>2011-08-14T10:40:18Z</time>
      </trkpt>
      <trkpt lat="59.6422638" lon="17.5704533">
        <ele>36.6675</ele>
        <time>2011-08-14T10:40:28Z</time>
      </trkpt>
      <trkpt lat="59.6419626" lon="17.5708802">
        <ele>38.1094</ele>
        <time>2011-08-14T10:40:34Z</time>
      </trkpt>
      <trkpt lat="59.6414515" lon="17.5716046">
        <ele>39.0707</ele>
        <time>2011-08-14T10:40:44Z</time>
      </trkpt>
      <trkpt lat="59.6411049" lon="17.5720998">
        <ele>39.5513</ele>
        <time>2011-08-14T10:40:51Z</time>
      </trkpt>
      <trkpt lat="59.6407055" lon="17.5726545">
        <ele>38.5901</ele>
        <time>2011-08-14T10:40:59Z</time>
      </trkpt>
      <trkpt lat="59.6401665" lon="17.573415">
        <ele>37.6287</ele>
        <time>2011-08-14T10:41:10Z</time>
      </trkpt>
      <trkpt lat="59.6397833" lon="17.5739597">
        <ele>37.6287</ele>
        <time>2011-08-14T10:41:18Z</time>
      </trkpt>
      <trkpt lat="59.6394368" lon="17.5744519">
        <ele>38.1094</ele>
        <time>2011-08-14T10:41:25Z</time>
      </trkpt>
      <trkpt lat="59.639062" lon="17.5749861">
        <ele>39.0707</ele>
        <time>2011-08-14T10:41:32Z</time>
      </trkpt>
      <trkpt lat="59.6384765" lon="17.5758217">
        <ele>41.9547</ele>
        <time>2011-08-14T10:41:42Z</time>
      </trkpt>
      <trkpt lat="59.6381503" lon="17.5763138">
        <ele>42.4354</ele>
        <time>2011-08-14T10:41:47Z</time>
      </trkpt>
      <trkpt lat="59.6375799" lon="17.577184">
        <ele>40.9934</ele>
        <time>2011-08-14T10:41:55Z</time>
      </trkpt>
      <trkpt lat="59.6369248" lon="17.5783119">
        <ele>39.5513</ele>
        <time>2011-08-14T10:42:04Z</time>
      </trkpt>
      <trkpt lat="59.6363277" lon="17.5795156">
        <ele>38.5901</ele>
        <time>2011-08-14T10:42:13Z</time>
      </trkpt>
      <trkpt lat="59.63596" lon="17.5803434">
        <ele>37.6287</ele>
        <time>2011-08-14T10:42:19Z</time>
      </trkpt>
      <trkpt lat="59.6354478" lon="17.581615">
        <ele>36.6675</ele>
        <time>2011-08-14T10:42:28Z</time>
      </trkpt>
      <trkpt lat="59.6349453" lon="17.5830603">
        <ele>38.5901</ele>
        <time>2011-08-14T10:42:38Z</time>
      </trkpt>
      <trkpt lat="59.6344922" lon="17.5845818">
        <ele>37.1481</ele>
        <time>2011-08-14T10:42:48Z</time>
      </trkpt>
      <trkpt lat="59.6341687" lon="17.585822">
        <ele>35.2255</ele>
        <time>2011-08-14T10:42:56Z</time>
      </trkpt>
      <trkpt lat="59.6338772" lon="17.5871028">
        <ele>30.4188</ele>
        <time>2011-08-14T10:43:04Z</time>
      </trkpt>
      <trkpt lat="59.6336357" lon="17.5882228">
        <ele>28.9769</ele>
        <time>2011-08-14T10:43:11Z</time>
      </trkpt>
      <trkpt lat="59.6333487" lon="17.5895769">
        <ele>27.0543</ele>
        <time>2011-08-14T10:43:19Z</time>
      </trkpt>
      <trkpt lat="59.633034" lon="17.5910631">
        <ele>27.0543</ele>
        <time>2011-08-14T10:43:28Z</time>
      </trkpt>
      <trkpt lat="59.6327812" lon="17.5923022">
        <ele>27.0543</ele>
        <time>2011-08-14T10:43:36Z</time>
      </trkpt>
      <trkpt lat="59.6325421" lon="17.5934387">
        <ele>27.0543</ele>
        <time>2011-08-14T10:43:44Z</time>
      </trkpt>
      <trkpt lat="59.6322461" lon="17.5948688">
        <ele>26.5736</ele>
        <time>2011-08-14T10:43:54Z</time>
      </trkpt>
      <trkpt lat="59.6319544" lon="17.596211">
        <ele>26.0929</ele>
        <time>2011-08-14T10:44:03Z</time>
      </trkpt>
      <trkpt lat="59.6316808" lon="17.5971177">
        <ele>25.6123</ele>
        <time>2011-08-14T10:44:10Z</time>
      </trkpt>
      <trkpt lat="59.6314792" lon="17.5976514">
        <ele>25.1317</ele>
        <time>2011-08-14T10:44:15Z</time>
      </trkpt>
      <trkpt lat="59.6313296" lon="17.5979416">
        <ele>25.1317</ele>
        <time>2011-08-14T10:44:20Z</time>
      </trkpt>
      <trkpt lat="59.6313238" lon="17.5979504">
        <ele>25.6123</ele>
        <time>2011-08-14T10:44:24Z</time>
      </trkpt>
      <trkpt lat="59.6313255" lon="17.5979346">
        <ele>26.0929</ele>
        <time>2011-08-14T10:44:33Z</time>
      </trkpt>
      <trkpt lat="59.6313295" lon="17.5979225">
        <ele>26.0929</ele>
        <time>2011-08-14T10:44:44Z</time>
      </trkpt>
      <trkpt lat="59.6313331" lon="17.5979157">
        <ele>25.6123</ele>
        <time>2011-08-14T10:44:53Z</time>
      </trkpt>
      <trkpt lat="59.6313167" lon="17.5979127">
        <ele>26.0929</ele>
        <time>2011-08-14T10:45:23Z</time>
      </trkpt>
      <trkpt lat="59.6313223" lon="17.5979065">
        <ele>26.0929</ele>
        <time>2011-08-14T10:45:35Z</time>
      </trkpt>
      <trkpt lat="59.6313242" lon="17.5978967">
        <ele>25.1317</ele>
        <time>2011-08-14T10:45:50Z</time>
      </trkpt>
      <trkpt lat="59.6312303" lon="17.5981941">
        <ele>25.1317</ele>
        <time>2011-08-14T10:47:02Z</time>
      </trkpt>
      <trkpt lat="59.6309623" lon="17.5987114">
        <ele>23.6896</ele>
        <time>2011-08-14T10:47:09Z</time>
      </trkpt>
      <trkpt lat="59.630594" lon="17.5992949">
        <ele>21.767</ele>
        <time>2011-08-14T10:47:17Z</time>
      </trkpt>
      <trkpt lat="59.6302081" lon="17.5997853">
        <ele>21.2864</ele>
        <time>2011-08-14T10:47:24Z</time>
      </trkpt>
      <trkpt lat="59.6297875" lon="17.600208">
        <ele>20.8057</ele>
        <time>2011-08-14T10:47:31Z</time>
      </trkpt>
      <trkpt lat="59.6293938" lon="17.6005048">
        <ele>20.325</ele>
        <time>2011-08-14T10:47:37Z</time>
      </trkpt>
      <trkpt lat="59.6292596" lon="17.6005923">
        <ele>20.325</ele>
        <time>2011-08-14T10:47:39Z</time>
      </trkpt>
      <trkpt lat="59.6287167" lon="17.6009389">
        <ele>20.325</ele>
        <time>2011-08-14T10:47:47Z</time>
      </trkpt>
      <trkpt lat="59.6279113" lon="17.6014488">
        <ele>21.2864</ele>
        <time>2011-08-14T10:47:59Z</time>
      </trkpt>
      <trkpt lat="59.6271765" lon="17.6019179">
        <ele>21.767</ele>
        <time>2011-08-14T10:48:10Z</time>
      </trkpt>
      <trkpt lat="59.626437" lon="17.6023883">
        <ele>22.2476</ele>
        <time>2011-08-14T10:48:21Z</time>
      </trkpt>
      <trkpt lat="59.6256838" lon="17.6028664">
        <ele>21.2864</ele>
        <time>2011-08-14T10:48:32Z</time>
      </trkpt>
      <trkpt lat="59.6251006" lon="17.6032394">
        <ele>19.8444</ele>
        <time>2011-08-14T10:48:40Z</time>
      </trkpt>
      <trkpt lat="59.6243593" lon="17.603713">
        <ele>16.9604</ele>
        <time>2011-08-14T10:48:50Z</time>
      </trkpt>
      <trkpt lat="59.6236741" lon="17.6041582">
        <ele>14.557</ele>
        <time>2011-08-14T10:48:59Z</time>
      </trkpt>
      <trkpt lat="59.6228941" lon="17.6046524">
        <ele>11.6732</ele>
        <time>2011-08-14T10:49:09Z</time>
      </trkpt>
      <trkpt lat="59.6220346" lon="17.6051926">
        <ele>9.75061</ele>
        <time>2011-08-14T10:49:20Z</time>
      </trkpt>
      <trkpt lat="59.6212657" lon="17.6056725">
        <ele>9.2699</ele>
        <time>2011-08-14T10:49:30Z</time>
      </trkpt>
      <trkpt lat="59.6206545" lon="17.6060293">
        <ele>9.2699</ele>
        <time>2011-08-14T10:49:38Z</time>
      </trkpt>
      <trkpt lat="59.6200328" lon="17.6063029">
        <ele>10.2312</ele>
        <time>2011-08-14T10:49:46Z</time>
      </trkpt>
      <trkpt lat="59.61949" lon="17.6064664">
        <ele>11.6732</ele>
        <time>2011-08-14T10:49:53Z</time>
      </trkpt>
      <trkpt lat="59.6190041" lon="17.6065603">
        <ele>13.5958</ele>
        <time>2011-08-14T10:50:00Z</time>
      </trkpt>
      <trkpt lat="59.6183191" lon="17.6066026">
        <ele>15.5184</ele>
        <time>2011-08-14T10:50:10Z</time>
      </trkpt>
      <trkpt lat="59.6177888" lon="17.6065752">
        <ele>16.4797</ele>
        <time>2011-08-14T10:50:18Z</time>
      </trkpt>
      <trkpt lat="59.6171828" lon="17.6064486">
        <ele>16.9604</ele>
        <time>2011-08-14T10:50:27Z</time>
      </trkpt>
      <trkpt lat="59.6164741" lon="17.6062242">
        <ele>16.4797</ele>
        <time>2011-08-14T10:50:37Z</time>
      </trkpt>
      <trkpt lat="59.6157017" lon="17.6059635">
        <ele>16.4797</ele>
        <time>2011-08-14T10:50:47Z</time>
      </trkpt>
      <trkpt lat="59.6150947" lon="17.6057553">
        <ele>16.4797</ele>
        <time>2011-08-14T10:50:55Z</time>
      </trkpt>
      <trkpt lat="59.6144426" lon="17.6055605">
        <ele>16.9604</ele>
        <time>2011-08-14T10:51:04Z</time>
      </trkpt>
      <trkpt lat="59.6138904" lon="17.605484">
        <ele>17.9218</ele>
        <time>2011-08-14T10:51:12Z</time>
      </trkpt>
      <trkpt lat="59.6133701" lon="17.6055042">
        <ele>19.3638</ele>
        <time>2011-08-14T10:51:20Z</time>
      </trkpt>
      <trkpt lat="59.6128252" lon="17.6056143">
        <ele>21.767</ele>
        <time>2011-08-14T10:51:29Z</time>
      </trkpt>
      <trkpt lat="59.6122721" lon="17.6058348">
        <ele>25.1317</ele>
        <time>2011-08-14T10:51:39Z</time>
      </trkpt>
      <trkpt lat="59.6118728" lon="17.6060453">
        <ele>27.5349</ele>
        <time>2011-08-14T10:51:47Z</time>
      </trkpt>
      <trkpt lat="59.6114242" lon="17.606297">
        <ele>28.9769</ele>
        <time>2011-08-14T10:51:56Z</time>
      </trkpt>
      <trkpt lat="59.6109413" lon="17.6065579">
        <ele>29.4575</ele>
        <time>2011-08-14T10:52:06Z</time>
      </trkpt>
      <trkpt lat="59.6105399" lon="17.6067458">
        <ele>30.8995</ele>
        <time>2011-08-14T10:52:14Z</time>
      </trkpt>
      <trkpt lat="59.6102391" lon="17.6068746">
        <ele>30.4188</ele>
        <time>2011-08-14T10:52:20Z</time>
      </trkpt>
      <trkpt lat="59.609712" lon="17.6070898">
        <ele>32.8223</ele>
        <time>2011-08-14T10:52:30Z</time>
      </trkpt>
      <trkpt lat="59.6091888" lon="17.607272">
        <ele>35.2255</ele>
        <time>2011-08-14T10:52:38Z</time>
      </trkpt>
      <trkpt lat="59.6085294" lon="17.6074981">
        <ele>37.1481</ele>
        <time>2011-08-14T10:52:48Z</time>
      </trkpt>
      <trkpt lat="59.6080885" lon="17.6076392">
        <ele>38.1094</ele>
        <time>2011-08-14T10:52:55Z</time>
      </trkpt>
      <trkpt lat="59.6077028" lon="17.6077678">
        <ele>39.0707</ele>
        <time>2011-08-14T10:53:01Z</time>
      </trkpt>
      <trkpt lat="59.6069568" lon="17.6080404">
        <ele>40.0321</ele>
        <time>2011-08-14T10:53:12Z</time>
      </trkpt>
      <trkpt lat="59.6063226" lon="17.6083007">
        <ele>40.0321</ele>
        <time>2011-08-14T10:53:21Z</time>
      </trkpt>
      <trkpt lat="59.6058569" lon="17.6084962">
        <ele>39.0707</ele>
        <time>2011-08-14T10:53:27Z</time>
      </trkpt>
      <trkpt lat="59.6050908" lon="17.6088386">
        <ele>35.7061</ele>
        <time>2011-08-14T10:53:36Z</time>
      </trkpt>
      <trkpt lat="59.6045351" lon="17.609092">
        <ele>34.2642</ele>
        <time>2011-08-14T10:53:42Z</time>
      </trkpt>
      <trkpt lat="59.6037249" lon="17.6094644">
        <ele>33.3029</ele>
        <time>2011-08-14T10:53:50Z</time>
      </trkpt>
      <trkpt lat="59.6026053" lon="17.6099901">
        <ele>32.8223</ele>
        <time>2011-08-14T10:54:01Z</time>
      </trkpt>
      <trkpt lat="59.6014863" lon="17.6105181">
        <ele>31.8607</ele>
        <time>2011-08-14T10:54:12Z</time>
      </trkpt>
      <trkpt lat="59.600699" lon="17.6109272">
        <ele>31.3801</ele>
        <time>2011-08-14T10:54:20Z</time>
      </trkpt>
      <trkpt lat="59.5999507" lon="17.611379">
        <ele>30.4188</ele>
        <time>2011-08-14T10:54:28Z</time>
      </trkpt>
      <trkpt lat="59.5992737" lon="17.6117903">
        <ele>30.4188</ele>
        <time>2011-08-14T10:54:36Z</time>
      </trkpt>
      <trkpt lat="59.5987182" lon="17.6121547">
        <ele>30.4188</ele>
        <time>2011-08-14T10:54:43Z</time>
      </trkpt>
      <trkpt lat="59.5982147" lon="17.6125093">
        <ele>30.4188</ele>
        <time>2011-08-14T10:54:50Z</time>
      </trkpt>
      <trkpt lat="59.5977259" lon="17.6128805">
        <ele>30.4188</ele>
        <time>2011-08-14T10:54:57Z</time>
      </trkpt>
      <trkpt lat="59.5971902" lon="17.6133027">
        <ele>30.4188</ele>
        <time>2011-08-14T10:55:05Z</time>
      </trkpt>
      <trkpt lat="59.5966468" lon="17.6137618">
        <ele>29.9381</ele>
        <time>2011-08-14T10:55:14Z</time>
      </trkpt>
      <trkpt lat="59.5962873" lon="17.6141441">
        <ele>29.4575</ele>
        <time>2011-08-14T10:55:21Z</time>
      </trkpt>
      <trkpt lat="59.5960701" lon="17.614342">
        <ele>29.4575</ele>
        <time>2011-08-14T10:55:25Z</time>
      </trkpt>
      <trkpt lat="59.5959785" lon="17.6145853">
        <ele>28.9769</ele>
        <time>2011-08-14T10:55:28Z</time>
      </trkpt>
      <trkpt lat="59.5960661" lon="17.6148776">
        <ele>28.4962</ele>
        <time>2011-08-14T10:55:31Z</time>
      </trkpt>
      <trkpt lat="59.5961169" lon="17.6149535">
        <ele>28.0155</ele>
        <time>2011-08-14T10:55:32Z</time>
      </trkpt>
      <trkpt lat="59.5964749" lon="17.615506">
        <ele>26.0929</ele>
        <time>2011-08-14T10:55:38Z</time>
      </trkpt>
      <trkpt lat="59.5969822" lon="17.6165278">
        <ele>24.1703</ele>
        <time>2011-08-14T10:55:47Z</time>
      </trkpt>
      <trkpt lat="59.5973998" lon="17.6174653">
        <ele>23.6896</ele>
        <time>2011-08-14T10:55:55Z</time>
      </trkpt>
      <trkpt lat="59.5978848" lon="17.6185">
        <ele>23.209</ele>
        <time>2011-08-14T10:56:04Z</time>
      </trkpt>
      <trkpt lat="59.5982759" lon="17.6193615">
        <ele>22.7283</ele>
        <time>2011-08-14T10:56:12Z</time>
      </trkpt>
      <trkpt lat="59.5985938" lon="17.6202415">
        <ele>22.2476</ele>
        <time>2011-08-14T10:56:20Z</time>
      </trkpt>
      <trkpt lat="59.5987752" lon="17.6210283">
        <ele>22.2476</ele>
        <time>2011-08-14T10:56:27Z</time>
      </trkpt>
      <trkpt lat="59.5988965" lon="17.6219822">
        <ele>23.6896</ele>
        <time>2011-08-14T10:56:35Z</time>
      </trkpt>
      <trkpt lat="59.5989256" lon="17.6229268">
        <ele>26.0929</ele>
        <time>2011-08-14T10:56:43Z</time>
      </trkpt>
      <trkpt lat="59.5988531" lon="17.6238662">
        <ele>28.4962</ele>
        <time>2011-08-14T10:56:51Z</time>
      </trkpt>
      <trkpt lat="59.5986981" lon="17.6247648">
        <ele>29.9381</ele>
        <time>2011-08-14T10:56:59Z</time>
      </trkpt>
      <trkpt lat="59.5984804" lon="17.6256272">
        <ele>29.4575</ele>
        <time>2011-08-14T10:57:06Z</time>
      </trkpt>
      <trkpt lat="59.5981664" lon="17.6268076">
        <ele>29.4575</ele>
        <time>2011-08-14T10:57:15Z</time>
      </trkpt>
      <trkpt lat="59.5981345" lon="17.6269577">
        <ele>29.4575</ele>
        <time>2011-08-14T10:57:16Z</time>
      </trkpt>
      <trkpt lat="59.5980448" lon="17.6277848">
        <ele>29.9381</ele>
        <time>2011-08-14T10:57:21Z</time>
      </trkpt>
      <trkpt lat="59.5978919" lon="17.6289986">
        <ele>28.9769</ele>
        <time>2011-08-14T10:57:28Z</time>
      </trkpt>
      <trkpt lat="59.5976434" lon="17.6303356">
        <ele>29.4575</ele>
        <time>2011-08-14T10:57:36Z</time>
      </trkpt>
      <trkpt lat="59.5974025" lon="17.6313607">
        <ele>29.9381</ele>
        <time>2011-08-14T10:57:43Z</time>
      </trkpt>
      <trkpt lat="59.5970679" lon="17.6325763">
        <ele>30.4188</ele>
        <time>2011-08-14T10:57:52Z</time>
      </trkpt>
      <trkpt lat="59.5966326" lon="17.6340977">
        <ele>28.9769</ele>
        <time>2011-08-14T10:58:03Z</time>
      </trkpt>
      <trkpt lat="59.5962389" lon="17.6354403">
        <ele>27.5349</ele>
        <time>2011-08-14T10:58:12Z</time>
      </trkpt>
      <trkpt lat="59.5959074" lon="17.636549">
        <ele>28.0155</ele>
        <time>2011-08-14T10:58:20Z</time>
      </trkpt>
      <trkpt lat="59.595595" lon="17.6374225">
        <ele>28.0155</ele>
        <time>2011-08-14T10:58:27Z</time>
      </trkpt>
      <trkpt lat="59.5951548" lon="17.6385844">
        <ele>27.0543</ele>
        <time>2011-08-14T10:58:36Z</time>
      </trkpt>
      <trkpt lat="59.5947414" lon="17.6399205">
        <ele>26.0929</ele>
        <time>2011-08-14T10:58:45Z</time>
      </trkpt>
      <trkpt lat="59.5943142" lon="17.6411168">
        <ele>24.651</ele>
        <time>2011-08-14T10:58:53Z</time>
      </trkpt>
      <trkpt lat="59.5938195" lon="17.6421931">
        <ele>22.7283</ele>
        <time>2011-08-14T10:59:01Z</time>
      </trkpt>
      <trkpt lat="59.5932916" lon="17.6430773">
        <ele>20.8057</ele>
        <time>2011-08-14T10:59:09Z</time>
      </trkpt>
      <trkpt lat="59.5928984" lon="17.6436924">
        <ele>21.2864</ele>
        <time>2011-08-14T10:59:15Z</time>
      </trkpt>
      <trkpt lat="59.5925652" lon="17.644304">
        <ele>22.7283</ele>
        <time>2011-08-14T10:59:21Z</time>
      </trkpt>
      <trkpt lat="59.5921338" lon="17.6451988">
        <ele>21.767</ele>
        <time>2011-08-14T10:59:29Z</time>
      </trkpt>
      <trkpt lat="59.5916376" lon="17.6461461">
        <ele>20.8057</ele>
        <time>2011-08-14T10:59:37Z</time>
      </trkpt>
      <trkpt lat="59.591176" lon="17.6468365">
        <ele>20.8057</ele>
        <time>2011-08-14T10:59:44Z</time>
      </trkpt>
      <trkpt lat="59.5906062" lon="17.6475322">
        <ele>20.325</ele>
        <time>2011-08-14T10:59:52Z</time>
      </trkpt>
      <trkpt lat="59.5902395" lon="17.6481373">
        <ele>19.8444</ele>
        <time>2011-08-14T10:59:58Z</time>
      </trkpt>
      <trkpt lat="59.5899521" lon="17.6488745">
        <ele>19.8444</ele>
        <time>2011-08-14T11:00:04Z</time>
      </trkpt>
      <trkpt lat="59.5896894" lon="17.649821">
        <ele>20.325</ele>
        <time>2011-08-14T11:00:11Z</time>
      </trkpt>
      <trkpt lat="59.5893823" lon="17.6509917">
        <ele>20.8057</ele>
        <time>2011-08-14T11:00:20Z</time>
      </trkpt>
      <trkpt lat="59.5891475" lon="17.6518919">
        <ele>19.8444</ele>
        <time>2011-08-14T11:00:27Z</time>
      </trkpt>
      <trkpt lat="59.5889144" lon="17.6528015">
        <ele>20.325</ele>
        <time>2011-08-14T11:00:34Z</time>
      </trkpt>
      <trkpt lat="59.5886466" lon="17.6538594">
        <ele>22.2476</ele>
        <time>2011-08-14T11:00:42Z</time>
      </trkpt>
      <trkpt lat="59.5884002" lon="17.6548118">
        <ele>22.7283</ele>
        <time>2011-08-14T11:00:49Z</time>
      </trkpt>
      <trkpt lat="59.588053" lon="17.6560365">
        <ele>23.6896</ele>
        <time>2011-08-14T11:00:58Z</time>
      </trkpt>
      <trkpt lat="59.5877324" lon="17.6569304">
        <ele>23.209</ele>
        <time>2011-08-14T11:01:05Z</time>
      </trkpt>
      <trkpt lat="59.5872825" lon="17.6580419">
        <ele>22.2476</ele>
        <time>2011-08-14T11:01:14Z</time>
      </trkpt>
      <trkpt lat="59.5868247" lon="17.6591525">
        <ele>21.767</ele>
        <time>2011-08-14T11:01:23Z</time>
      </trkpt>
      <trkpt lat="59.5863276" lon="17.6603588">
        <ele>21.767</ele>
        <time>2011-08-14T11:01:33Z</time>
      </trkpt>
      <trkpt lat="59.5858924" lon="17.6614285">
        <ele>22.7283</ele>
        <time>2011-08-14T11:01:42Z</time>
      </trkpt>
      <trkpt lat="59.5854235" lon="17.6626231">
        <ele>24.1703</ele>
        <time>2011-08-14T11:01:52Z</time>
      </trkpt>
      <trkpt lat="59.5850885" lon="17.6636284">
        <ele>24.651</ele>
        <time>2011-08-14T11:02:00Z</time>
      </trkpt>
      <trkpt lat="59.5847347" lon="17.6648695">
        <ele>25.1317</ele>
        <time>2011-08-14T11:02:09Z</time>
      </trkpt>
      <trkpt lat="59.5844392" lon="17.6660073">
        <ele>24.651</ele>
        <time>2011-08-14T11:02:17Z</time>
      </trkpt>
      <trkpt lat="59.5841166" lon="17.6672578">
        <ele>23.209</ele>
        <time>2011-08-14T11:02:26Z</time>
      </trkpt>
      <trkpt lat="59.5838094" lon="17.668393">
        <ele>22.2476</ele>
        <time>2011-08-14T11:02:34Z</time>
      </trkpt>
      <trkpt lat="59.5834489" lon="17.6694928">
        <ele>22.2476</ele>
        <time>2011-08-14T11:02:42Z</time>
      </trkpt>
      <trkpt lat="59.5830847" lon="17.67036">
        <ele>23.209</ele>
        <time>2011-08-14T11:02:49Z</time>
      </trkpt>
      <trkpt lat="59.5826414" lon="17.6712028">
        <ele>24.651</ele>
        <time>2011-08-14T11:02:57Z</time>
      </trkpt>
      <trkpt lat="59.5822131" lon="17.6719038">
        <ele>25.6123</ele>
        <time>2011-08-14T11:03:04Z</time>
      </trkpt>
      <trkpt lat="59.5815735" lon="17.67291">
        <ele>25.6123</ele>
        <time>2011-08-14T11:03:14Z</time>
      </trkpt>
      <trkpt lat="59.5810334" lon="17.6737766">
        <ele>25.6123</ele>
        <time>2011-08-14T11:03:23Z</time>
      </trkpt>
      <trkpt lat="59.5804931" lon="17.6745966">
        <ele>26.0929</ele>
        <time>2011-08-14T11:03:32Z</time>
      </trkpt>
      <trkpt lat="59.5799687" lon="17.6751882">
        <ele>26.5736</ele>
        <time>2011-08-14T11:03:40Z</time>
      </trkpt>
      <trkpt lat="59.5794679" lon="17.6755464">
        <ele>27.0543</ele>
        <time>2011-08-14T11:03:47Z</time>
      </trkpt>
      <trkpt lat="59.5789277" lon="17.6757805">
        <ele>28.4962</ele>
        <time>2011-08-14T11:03:55Z</time>
      </trkpt>
      <trkpt lat="59.5785428" lon="17.6759238">
        <ele>30.8995</ele>
        <time>2011-08-14T11:04:01Z</time>
      </trkpt>
      <trkpt lat="59.5780301" lon="17.6760787">
        <ele>34.2642</ele>
        <time>2011-08-14T11:04:09Z</time>
      </trkpt>
      <trkpt lat="59.5776084" lon="17.6763032">
        <ele>36.6675</ele>
        <time>2011-08-14T11:04:16Z</time>
      </trkpt>
      <trkpt lat="59.5771696" lon="17.6767309">
        <ele>38.5901</ele>
        <time>2011-08-14T11:04:24Z</time>
      </trkpt>
      <trkpt lat="59.5768629" lon="17.6771035">
        <ele>40.0321</ele>
        <time>2011-08-14T11:04:30Z</time>
      </trkpt>
      <trkpt lat="59.5766823" lon="17.6773291">
        <ele>39.0707</ele>
        <time>2011-08-14T11:04:34Z</time>
      </trkpt>
      <trkpt lat="59.5763697" lon="17.6776842">
        <ele>36.1868</ele>
        <time>2011-08-14T11:04:40Z</time>
      </trkpt>
      <trkpt lat="59.5759979" lon="17.6782312">
        <ele>35.2255</ele>
        <time>2011-08-14T11:04:47Z</time>
      </trkpt>
      <trkpt lat="59.5756948" lon="17.6788538">
        <ele>34.2642</ele>
        <time>2011-08-14T11:04:53Z</time>
      </trkpt>
      <trkpt lat="59.5754249" lon="17.679618">
        <ele>35.7061</ele>
        <time>2011-08-14T11:04:59Z</time>
      </trkpt>
      <trkpt lat="59.5751174" lon="17.6807367">
        <ele>36.6675</ele>
        <time>2011-08-14T11:05:07Z</time>
      </trkpt>
      <trkpt lat="59.5748511" lon="17.6816509">
        <ele>35.7061</ele>
        <time>2011-08-14T11:05:13Z</time>
      </trkpt>
      <trkpt lat="59.5745355" lon="17.6823313">
        <ele>33.7834</ele>
        <time>2011-08-14T11:05:18Z</time>
      </trkpt>
      <trkpt lat="59.5741392" lon="17.6829027">
        <ele>32.3416</ele>
        <time>2011-08-14T11:05:23Z</time>
      </trkpt>
      <trkpt lat="59.5736864" lon="17.6833075">
        <ele>31.8607</ele>
        <time>2011-08-14T11:05:28Z</time>
      </trkpt>
      <trkpt lat="59.5730375" lon="17.6836821">
        <ele>31.8607</ele>
        <time>2011-08-14T11:05:35Z</time>
      </trkpt>
      <trkpt lat="59.5723392" lon="17.6840811">
        <ele>31.8607</ele>
        <time>2011-08-14T11:05:43Z</time>
      </trkpt>
      <trkpt lat="59.5715796" lon="17.684535">
        <ele>30.4188</ele>
        <time>2011-08-14T11:05:52Z</time>
      </trkpt>
      <trkpt lat="59.5708473" lon="17.6849695">
        <ele>29.4575</ele>
        <time>2011-08-14T11:06:00Z</time>
      </trkpt>
      <trkpt lat="59.5702144" lon="17.6853472">
        <ele>29.4575</ele>
        <time>2011-08-14T11:06:07Z</time>
      </trkpt>
      <trkpt lat="59.5696207" lon="17.6856907">
        <ele>30.8995</ele>
        <time>2011-08-14T11:06:14Z</time>
      </trkpt>
      <trkpt lat="59.5690845" lon="17.6860108">
        <ele>31.8607</ele>
        <time>2011-08-14T11:06:21Z</time>
      </trkpt>
      <trkpt lat="59.568713" lon="17.6862223">
        <ele>31.8607</ele>
        <time>2011-08-14T11:06:26Z</time>
      </trkpt>
      <trkpt lat="59.5682749" lon="17.6864997">
        <ele>31.3801</ele>
        <time>2011-08-14T11:06:32Z</time>
      </trkpt>
      <trkpt lat="59.5680547" lon="17.6866764">
        <ele>30.8995</ele>
        <time>2011-08-14T11:06:35Z</time>
      </trkpt>
      <trkpt lat="59.5678414" lon="17.6868974">
        <ele>30.4188</ele>
        <time>2011-08-14T11:06:38Z</time>
      </trkpt>
      <trkpt lat="59.5674201" lon="17.6873892">
        <ele>29.9381</ele>
        <time>2011-08-14T11:06:44Z</time>
      </trkpt>
      <trkpt lat="59.5669709" lon="17.6881818">
        <ele>30.4188</ele>
        <time>2011-08-14T11:06:51Z</time>
      </trkpt>
      <trkpt lat="59.5665452" lon="17.6890985">
        <ele>30.8995</ele>
        <time>2011-08-14T11:06:58Z</time>
      </trkpt>
      <trkpt lat="59.5661959" lon="17.6898942">
        <ele>31.3801</ele>
        <time>2011-08-14T11:07:04Z</time>
      </trkpt>
      <trkpt lat="59.56595" lon="17.6904293">
        <ele>32.3416</ele>
        <time>2011-08-14T11:07:08Z</time>
      </trkpt>
      <trkpt lat="59.5657859" lon="17.6908228">
        <ele>32.3416</ele>
        <time>2011-08-14T11:07:11Z</time>
      </trkpt>
      <trkpt lat="59.5654093" lon="17.6919145">
        <ele>33.3029</ele>
        <time>2011-08-14T11:07:19Z</time>
      </trkpt>
      <trkpt lat="59.5652227" lon="17.6926302">
        <ele>34.2642</ele>
        <time>2011-08-14T11:07:24Z</time>
      </trkpt>
      <trkpt lat="59.5650003" lon="17.6936996">
        <ele>33.3029</ele>
        <time>2011-08-14T11:07:31Z</time>
      </trkpt>
      <trkpt lat="59.5648518" lon="17.694838">
        <ele>32.8223</ele>
        <time>2011-08-14T11:07:38Z</time>
      </trkpt>
      <trkpt lat="59.5647595" lon="17.6958301">
        <ele>32.3416</ele>
        <time>2011-08-14T11:07:44Z</time>
      </trkpt>
      <trkpt lat="59.5646776" lon="17.697004">
        <ele>31.8607</ele>
        <time>2011-08-14T11:07:51Z</time>
      </trkpt>
      <trkpt lat="59.5645554" lon="17.698345">
        <ele>32.8223</ele>
        <time>2011-08-14T11:07:59Z</time>
      </trkpt>
      <trkpt lat="59.564454" lon="17.6994749">
        <ele>31.3801</ele>
        <time>2011-08-14T11:08:06Z</time>
      </trkpt>
      <trkpt lat="59.5643779" lon="17.7004308">
        <ele>30.4188</ele>
        <time>2011-08-14T11:08:12Z</time>
      </trkpt>
      <trkpt lat="59.5643046" lon="17.7013515">
        <ele>30.4188</ele>
        <time>2011-08-14T11:08:18Z</time>
      </trkpt>
      <trkpt lat="59.564197" lon="17.7025842">
        <ele>29.9381</ele>
        <time>2011-08-14T11:08:26Z</time>
      </trkpt>
      <trkpt lat="59.5641086" lon="17.7037085">
        <ele>30.8995</ele>
        <time>2011-08-14T11:08:33Z</time>
      </trkpt>
      <trkpt lat="59.5640394" lon="17.7045739">
        <ele>32.8223</ele>
        <time>2011-08-14T11:08:39Z</time>
      </trkpt>
      <trkpt lat="59.5639612" lon="17.7053343">
        <ele>33.7834</ele>
        <time>2011-08-14T11:08:45Z</time>
      </trkpt>
      <trkpt lat="59.563812" lon="17.7064498">
        <ele>33.7834</ele>
        <time>2011-08-14T11:08:53Z</time>
      </trkpt>
      <trkpt lat="59.5636097" lon="17.7073838">
        <ele>32.3416</ele>
        <time>2011-08-14T11:08:59Z</time>
      </trkpt>
      <trkpt lat="59.5632885" lon="17.7087784">
        <ele>33.3029</ele>
        <time>2011-08-14T11:09:08Z</time>
      </trkpt>
      <trkpt lat="59.5632201" lon="17.7092025">
        <ele>33.3029</ele>
        <time>2011-08-14T11:09:11Z</time>
      </trkpt>
      <trkpt lat="59.5632041" lon="17.7097801">
        <ele>32.3416</ele>
        <time>2011-08-14T11:09:15Z</time>
      </trkpt>
      <trkpt lat="59.5632213" lon="17.7100655">
        <ele>32.3416</ele>
        <time>2011-08-14T11:09:17Z</time>
      </trkpt>
      <trkpt lat="59.5631308" lon="17.7104207">
        <ele>31.8607</ele>
        <time>2011-08-14T11:09:20Z</time>
      </trkpt>
      <trkpt lat="59.5629884" lon="17.7105227">
        <ele>31.3801</ele>
        <time>2011-08-14T11:09:22Z</time>
      </trkpt>
      <trkpt lat="59.5623881" lon="17.710883">
        <ele>30.4188</ele>
        <time>2011-08-14T11:09:30Z</time>
      </trkpt>
      <trkpt lat="59.5616505" lon="17.7113963">
        <ele>30.4188</ele>
        <time>2011-08-14T11:09:40Z</time>
      </trkpt>
      <trkpt lat="59.5610521" lon="17.7119214">
        <ele>32.3416</ele>
        <time>2011-08-14T11:09:48Z</time>
      </trkpt>
      <trkpt lat="59.5606495" lon="17.712384">
        <ele>33.3029</ele>
        <time>2011-08-14T11:09:54Z</time>
      </trkpt>
      <trkpt lat="59.5602385" lon="17.7129835">
        <ele>33.3029</ele>
        <time>2011-08-14T11:10:01Z</time>
      </trkpt>
      <trkpt lat="59.5599521" lon="17.7135529">
        <ele>33.7834</ele>
        <time>2011-08-14T11:10:07Z</time>
      </trkpt>
      <trkpt lat="59.559525" lon="17.7145561">
        <ele>33.3029</ele>
        <time>2011-08-14T11:10:16Z</time>
      </trkpt>
      <trkpt lat="59.559218" lon="17.7154343">
        <ele>31.8607</ele>
        <time>2011-08-14T11:10:23Z</time>
      </trkpt>
      <trkpt lat="59.558907" lon="17.7164205">
        <ele>28.9769</ele>
        <time>2011-08-14T11:10:30Z</time>
      </trkpt>
      <trkpt lat="59.5585881" lon="17.7174042">
        <ele>26.5736</ele>
        <time>2011-08-14T11:10:36Z</time>
      </trkpt>
      <trkpt lat="59.5580649" lon="17.7188893">
        <ele>26.5736</ele>
        <time>2011-08-14T11:10:45Z</time>
      </trkpt>
      <trkpt lat="59.5577846" lon="17.7195927">
        <ele>27.0543</ele>
        <time>2011-08-14T11:10:50Z</time>
      </trkpt>
      <trkpt lat="59.5574731" lon="17.7202381">
        <ele>28.4962</ele>
        <time>2011-08-14T11:10:56Z</time>
      </trkpt>
      <trkpt lat="59.5570774" lon="17.7209624">
        <ele>29.9381</ele>
        <time>2011-08-14T11:11:04Z</time>
      </trkpt>
      <trkpt lat="59.5567554" lon="17.7215047">
        <ele>29.9381</ele>
        <time>2011-08-14T11:11:11Z</time>
      </trkpt>
      <trkpt lat="59.5564521" lon="17.7220124">
        <ele>28.4962</ele>
        <time>2011-08-14T11:11:18Z</time>
      </trkpt>
      <trkpt lat="59.5561167" lon="17.7225789">
        <ele>29.9381</ele>
        <time>2011-08-14T11:11:26Z</time>
      </trkpt>
      <trkpt lat="59.5557551" lon="17.7232432">
        <ele>34.2642</ele>
        <time>2011-08-14T11:11:35Z</time>
      </trkpt>
      <trkpt lat="59.555443" lon="17.7238037">
        <ele>37.6287</ele>
        <time>2011-08-14T11:11:43Z</time>
      </trkpt>
      <trkpt lat="59.5551628" lon="17.7243294">
        <ele>40.0321</ele>
        <time>2011-08-14T11:11:50Z</time>
      </trkpt>
      <trkpt lat="59.5547895" lon="17.7250985">
        <ele>40.9934</ele>
        <time>2011-08-14T11:11:59Z</time>
      </trkpt>
      <trkpt lat="59.5545189" lon="17.725725">
        <ele>42.4354</ele>
        <time>2011-08-14T11:12:06Z</time>
      </trkpt>
      <trkpt lat="59.5542871" lon="17.726271">
        <ele>43.3966</ele>
        <time>2011-08-14T11:12:12Z</time>
      </trkpt>
      <trkpt lat="59.5539615" lon="17.7271323">
        <ele>43.3966</ele>
        <time>2011-08-14T11:12:20Z</time>
      </trkpt>
      <trkpt lat="59.5536282" lon="17.72804">
        <ele>40.9934</ele>
        <time>2011-08-14T11:12:28Z</time>
      </trkpt>
      <trkpt lat="59.5532461" lon="17.7290677">
        <ele>38.5901</ele>
        <time>2011-08-14T11:12:36Z</time>
      </trkpt>
      <trkpt lat="59.5528419" lon="17.7301888">
        <ele>35.7061</ele>
        <time>2011-08-14T11:12:44Z</time>
      </trkpt>
      <trkpt lat="59.5524407" lon="17.7312618">
        <ele>32.3416</ele>
        <time>2011-08-14T11:12:51Z</time>
      </trkpt>
      <trkpt lat="59.5520217" lon="17.7323195">
        <ele>29.4575</ele>
        <time>2011-08-14T11:12:57Z</time>
      </trkpt>
      <trkpt lat="59.5515047" lon="17.733452">
        <ele>25.1317</ele>
        <time>2011-08-14T11:13:04Z</time>
      </trkpt>
      <trkpt lat="59.5509556" lon="17.7344563">
        <ele>22.2476</ele>
        <time>2011-08-14T11:13:11Z</time>
      </trkpt>
      <trkpt lat="59.5504082" lon="17.7353059">
        <ele>21.2864</ele>
        <time>2011-08-14T11:13:18Z</time>
      </trkpt>
      <trkpt lat="59.5498953" lon="17.7359966">
        <ele>20.8057</ele>
        <time>2011-08-14T11:13:25Z</time>
      </trkpt>
      <trkpt lat="59.549171" lon="17.736825">
        <ele>20.325</ele>
        <time>2011-08-14T11:13:35Z</time>
      </trkpt>
      <trkpt lat="59.5485841" lon="17.737345">
        <ele>21.2864</ele>
        <time>2011-08-14T11:13:43Z</time>
      </trkpt>
      <trkpt lat="59.5480283" lon="17.7377583">
        <ele>22.2476</ele>
        <time>2011-08-14T11:13:51Z</time>
      </trkpt>
      <trkpt lat="59.5476492" lon="17.7379959">
        <ele>23.6896</ele>
        <time>2011-08-14T11:13:57Z</time>
      </trkpt>
      <trkpt lat="59.5470037" lon="17.7383152">
        <ele>26.5736</ele>
        <time>2011-08-14T11:14:07Z</time>
      </trkpt>
      <trkpt lat="59.5464454" lon="17.738522">
        <ele>29.4575</ele>
        <time>2011-08-14T11:14:16Z</time>
      </trkpt>
      <trkpt lat="59.5459093" lon="17.7387173">
        <ele>32.3416</ele>
        <time>2011-08-14T11:14:25Z</time>
      </trkpt>
      <trkpt lat="59.5455073" lon="17.7388585">
        <ele>33.3029</ele>
        <time>2011-08-14T11:14:32Z</time>
      </trkpt>
      <trkpt lat="59.5450077" lon="17.7390257">
        <ele>33.3029</ele>
        <time>2011-08-14T11:14:41Z</time>
      </trkpt>
      <trkpt lat="59.5446294" lon="17.7391482">
        <ele>33.3029</ele>
        <time>2011-08-14T11:14:48Z</time>
      </trkpt>
      <trkpt lat="59.5442054" lon="17.7393123">
        <ele>33.7834</ele>
        <time>2011-08-14T11:14:55Z</time>
      </trkpt>
      <trkpt lat="59.5436997" lon="17.7394765">
        <ele>32.8223</ele>
        <time>2011-08-14T11:15:03Z</time>
      </trkpt>
      <trkpt lat="59.5431726" lon="17.7396765">
        <ele>32.8223</ele>
        <time>2011-08-14T11:15:11Z</time>
      </trkpt>
      <trkpt lat="59.5426404" lon="17.739863">
        <ele>33.3029</ele>
        <time>2011-08-14T11:15:19Z</time>
      </trkpt>
      <trkpt lat="59.5420307" lon="17.7400851">
        <ele>33.7834</ele>
        <time>2011-08-14T11:15:27Z</time>
      </trkpt>
      <trkpt lat="59.5415792" lon="17.7402545">
        <ele>34.2642</ele>
        <time>2011-08-14T11:15:33Z</time>
      </trkpt>
      <trkpt lat="59.5409539" lon="17.7405518">
        <ele>36.1868</ele>
        <time>2011-08-14T11:15:42Z</time>
      </trkpt>
      <trkpt lat="59.540696" lon="17.7406588">
        <ele>37.6287</ele>
        <time>2011-08-14T11:15:46Z</time>
      </trkpt>
      <trkpt lat="59.5401391" lon="17.7410166">
        <ele>37.6287</ele>
        <time>2011-08-14T11:15:55Z</time>
      </trkpt>
      <trkpt lat="59.5395439" lon="17.7414831">
        <ele>35.7061</ele>
        <time>2011-08-14T11:16:05Z</time>
      </trkpt>
      <trkpt lat="59.5390501" lon="17.7419045">
        <ele>34.2642</ele>
        <time>2011-08-14T11:16:13Z</time>
      </trkpt>
      <trkpt lat="59.5384256" lon="17.742451">
        <ele>31.8607</ele>
        <time>2011-08-14T11:16:22Z</time>
      </trkpt>
      <trkpt lat="59.5378623" lon="17.742972">
        <ele>31.3801</ele>
        <time>2011-08-14T11:16:29Z</time>
      </trkpt>
      <trkpt lat="59.5372629" lon="17.7435714">
        <ele>29.4575</ele>
        <time>2011-08-14T11:16:36Z</time>
      </trkpt>
      <trkpt lat="59.536704" lon="17.7442054">
        <ele>26.5736</ele>
        <time>2011-08-14T11:16:43Z</time>
      </trkpt>
      <trkpt lat="59.5360746" lon="17.7449451">
        <ele>25.6123</ele>
        <time>2011-08-14T11:16:51Z</time>
      </trkpt>
      <trkpt lat="59.5355678" lon="17.745532">
        <ele>27.0543</ele>
        <time>2011-08-14T11:16:58Z</time>
      </trkpt>
      <trkpt lat="59.5349065" lon="17.7462997">
        <ele>29.9381</ele>
        <time>2011-08-14T11:17:08Z</time>
      </trkpt>
      <trkpt lat="59.5343525" lon="17.7468933">
        <ele>32.3416</ele>
        <time>2011-08-14T11:17:17Z</time>
      </trkpt>
      <trkpt lat="59.5339717" lon="17.7472611">
        <ele>33.3029</ele>
        <time>2011-08-14T11:17:24Z</time>
      </trkpt>
      <trkpt lat="59.5334878" lon="17.7477161">
        <ele>34.7449</ele>
        <time>2011-08-14T11:17:33Z</time>
      </trkpt>
      <trkpt lat="59.5330748" lon="17.7480722">
        <ele>36.6675</ele>
        <time>2011-08-14T11:17:40Z</time>
      </trkpt>
      <trkpt lat="59.532541" lon="17.7484893">
        <ele>38.1094</ele>
        <time>2011-08-14T11:17:49Z</time>
      </trkpt>
      <trkpt lat="59.5320089" lon="17.7488604">
        <ele>38.1094</ele>
        <time>2011-08-14T11:17:58Z</time>
      </trkpt>
      <trkpt lat="59.5314381" lon="17.7492202">
        <ele>38.5901</ele>
        <time>2011-08-14T11:18:07Z</time>
      </trkpt>
      <trkpt lat="59.5310454" lon="17.7494351">
        <ele>39.0707</ele>
        <time>2011-08-14T11:18:13Z</time>
      </trkpt>
      <trkpt lat="59.5304031" lon="17.7497471">
        <ele>39.0707</ele>
        <time>2011-08-14T11:18:22Z</time>
      </trkpt>
      <trkpt lat="59.5296659" lon="17.7500306">
        <ele>38.1094</ele>
        <time>2011-08-14T11:18:32Z</time>
      </trkpt>
      <trkpt lat="59.5288921" lon="17.7502786">
        <ele>36.6675</ele>
        <time>2011-08-14T11:18:42Z</time>
      </trkpt>
      <trkpt lat="59.5281451" lon="17.7504982">
        <ele>35.2255</ele>
        <time>2011-08-14T11:18:51Z</time>
      </trkpt>
      <trkpt lat="59.5274178" lon="17.7507571">
        <ele>33.3029</ele>
        <time>2011-08-14T11:18:59Z</time>
      </trkpt>
      <trkpt lat="59.5266584" lon="17.7511407">
        <ele>31.3801</ele>
        <time>2011-08-14T11:19:07Z</time>
      </trkpt>
      <trkpt lat="59.5257105" lon="17.7517745">
        <ele>28.0155</ele>
        <time>2011-08-14T11:19:17Z</time>
      </trkpt>
      <trkpt lat="59.5249745" lon="17.7524263">
        <ele>26.0929</ele>
        <time>2011-08-14T11:19:25Z</time>
      </trkpt>
      <trkpt lat="59.5243606" lon="17.7530484">
        <ele>25.1317</ele>
        <time>2011-08-14T11:19:32Z</time>
      </trkpt>
      <trkpt lat="59.5236712" lon="17.7538627">
        <ele>23.209</ele>
        <time>2011-08-14T11:19:40Z</time>
      </trkpt>
      <trkpt lat="59.5231584" lon="17.7544919">
        <ele>21.767</ele>
        <time>2011-08-14T11:19:46Z</time>
      </trkpt>
      <trkpt lat="59.5224755" lon="17.7552926">
        <ele>20.8057</ele>
        <time>2011-08-14T11:19:54Z</time>
      </trkpt>
      <trkpt lat="59.5218089" lon="17.7559905">
        <ele>20.8057</ele>
        <time>2011-08-14T11:20:02Z</time>
      </trkpt>
      <trkpt lat="59.521345" lon="17.7563966">
        <ele>20.325</ele>
        <time>2011-08-14T11:20:08Z</time>
      </trkpt>
      <trkpt lat="59.520837" lon="17.7567646">
        <ele>19.8444</ele>
        <time>2011-08-14T11:20:15Z</time>
      </trkpt>
      <trkpt lat="59.5201078" lon="17.7572014">
        <ele>19.3638</ele>
        <time>2011-08-14T11:20:25Z</time>
      </trkpt>
      <trkpt lat="59.519513" lon="17.7574845">
        <ele>19.3638</ele>
        <time>2011-08-14T11:20:33Z</time>
      </trkpt>
      <trkpt lat="59.5188566" lon="17.7578058">
        <ele>19.8444</ele>
        <time>2011-08-14T11:20:42Z</time>
      </trkpt>
      <trkpt lat="59.5182046" lon="17.7581296">
        <ele>19.3638</ele>
        <time>2011-08-14T11:20:51Z</time>
      </trkpt>
      <trkpt lat="59.5177931" lon="17.7583316">
        <ele>19.3638</ele>
        <time>2011-08-14T11:20:57Z</time>
      </trkpt>
      <trkpt lat="59.5173513" lon="17.7585507">
        <ele>19.3638</ele>
        <time>2011-08-14T11:21:03Z</time>
      </trkpt>
      <trkpt lat="59.5166234" lon="17.7589188">
        <ele>18.8831</ele>
        <time>2011-08-14T11:21:13Z</time>
      </trkpt>
      <trkpt lat="59.5161489" lon="17.7591427">
        <ele>19.3638</ele>
        <time>2011-08-14T11:21:20Z</time>
      </trkpt>
      <trkpt lat="59.5156559" lon="17.7593852">
        <ele>20.325</ele>
        <time>2011-08-14T11:21:28Z</time>
      </trkpt>
      <trkpt lat="59.5151171" lon="17.7596473">
        <ele>22.2476</ele>
        <time>2011-08-14T11:21:37Z</time>
      </trkpt>
      <trkpt lat="59.5148395" lon="17.7597877">
        <ele>23.6896</ele>
        <time>2011-08-14T11:21:42Z</time>
      </trkpt>
      <trkpt lat="59.5144946" lon="17.7599507">
        <ele>25.1317</ele>
        <time>2011-08-14T11:21:48Z</time>
      </trkpt>
      <trkpt lat="59.5143135" lon="17.7598467">
        <ele>25.6123</ele>
        <time>2011-08-14T11:21:52Z</time>
      </trkpt>
      <trkpt lat="59.514284" lon="17.7596603">
        <ele>25.6123</ele>
        <time>2011-08-14T11:21:55Z</time>
      </trkpt>
      <trkpt lat="59.5142854" lon="17.7596335">
        <ele>26.5736</ele>
        <time>2011-08-14T11:22:06Z</time>
      </trkpt>
      <trkpt lat="59.5142858" lon="17.7596178">
        <ele>25.6123</ele>
        <time>2011-08-14T11:22:13Z</time>
      </trkpt>
      <trkpt lat="59.514278" lon="17.7595786">
        <ele>23.6896</ele>
        <time>2011-08-14T11:22:18Z</time>
      </trkpt>
      <trkpt lat="59.5142329" lon="17.759294">
        <ele>22.7283</ele>
        <time>2011-08-14T11:22:23Z</time>
      </trkpt>
      <trkpt lat="59.5141432" lon="17.7587994">
        <ele>22.7283</ele>
        <time>2011-08-14T11:22:28Z</time>
      </trkpt>
      <trkpt lat="59.5140164" lon="17.7581455">
        <ele>22.7283</ele>
        <time>2011-08-14T11:22:34Z</time>
      </trkpt>
      <trkpt lat="59.5138605" lon="17.7573733">
        <ele>23.6896</ele>
        <time>2011-08-14T11:22:40Z</time>
      </trkpt>
      <trkpt lat="59.5135072" lon="17.7560253">
        <ele>25.1317</ele>
        <time>2011-08-14T11:22:51Z</time>
      </trkpt>
      <trkpt lat="59.5131265" lon="17.754848">
        <ele>27.5349</ele>
        <time>2011-08-14T11:23:01Z</time>
      </trkpt>
      <trkpt lat="59.5127074" lon="17.7537254">
        <ele>30.8995</ele>
        <time>2011-08-14T11:23:11Z</time>
      </trkpt>
      <trkpt lat="59.5122265" lon="17.7526348">
        <ele>34.2642</ele>
        <time>2011-08-14T11:23:21Z</time>
      </trkpt>
      <trkpt lat="59.5117227" lon="17.7516379">
        <ele>35.7061</ele>
        <time>2011-08-14T11:23:31Z</time>
      </trkpt>
      <trkpt lat="59.5115632" lon="17.7513675">
        <ele>36.1868</ele>
        <time>2011-08-14T11:23:34Z</time>
      </trkpt>
      <trkpt lat="59.5111319" lon="17.7506509">
        <ele>36.6675</ele>
        <time>2011-08-14T11:23:42Z</time>
      </trkpt>
      <trkpt lat="59.5106908" lon="17.7499958">
        <ele>36.6675</ele>
        <time>2011-08-14T11:23:50Z</time>
      </trkpt>
      <trkpt lat="59.5100961" lon="17.7492613">
        <ele>36.6675</ele>
        <time>2011-08-14T11:24:00Z</time>
      </trkpt>
      <trkpt lat="59.5095495" lon="17.7486866">
        <ele>36.1868</ele>
        <time>2011-08-14T11:24:09Z</time>
      </trkpt>
      <trkpt lat="59.5090233" lon="17.7482263">
        <ele>36.6675</ele>
        <time>2011-08-14T11:24:17Z</time>
      </trkpt>
      <trkpt lat="59.5084457" lon="17.747806">
        <ele>36.1868</ele>
        <time>2011-08-14T11:24:25Z</time>
      </trkpt>
      <trkpt lat="59.5077614" lon="17.7474332">
        <ele>36.6675</ele>
        <time>2011-08-14T11:24:34Z</time>
      </trkpt>
      <trkpt lat="59.507377" lon="17.7472669">
        <ele>36.6675</ele>
        <time>2011-08-14T11:24:39Z</time>
      </trkpt>
      <trkpt lat="59.50708" lon="17.747342">
        <ele>36.6675</ele>
        <time>2011-08-14T11:24:43Z</time>
      </trkpt>
      <trkpt lat="59.5069451" lon="17.7477336">
        <ele>36.6675</ele>
        <time>2011-08-14T11:24:46Z</time>
      </trkpt>
      <trkpt lat="59.506925" lon="17.7478812">
        <ele>36.1868</ele>
        <time>2011-08-14T11:24:47Z</time>
      </trkpt>
      <trkpt lat="59.5068131" lon="17.7491168">
        <ele>35.2255</ele>
        <time>2011-08-14T11:24:55Z</time>
      </trkpt>
      <trkpt lat="59.5066845" lon="17.749984">
        <ele>31.3801</ele>
        <time>2011-08-14T11:25:01Z</time>
      </trkpt>
      <trkpt lat="59.5065188" lon="17.7508798">
        <ele>28.0155</ele>
        <time>2011-08-14T11:25:08Z</time>
      </trkpt>
      <trkpt lat="59.5062712" lon="17.7519594">
        <ele>26.5736</ele>
        <time>2011-08-14T11:25:17Z</time>
      </trkpt>
      <trkpt lat="59.5060247" lon="17.752911">
        <ele>27.5349</ele>
        <time>2011-08-14T11:25:25Z</time>
      </trkpt>
      <trkpt lat="59.5058251" lon="17.7537077">
        <ele>29.4575</ele>
        <time>2011-08-14T11:25:32Z</time>
      </trkpt>
      <trkpt lat="59.5055263" lon="17.7547918">
        <ele>29.4575</ele>
        <time>2011-08-14T11:25:41Z</time>
      </trkpt>
      <trkpt lat="59.5054935" lon="17.7549179">
        <ele>29.4575</ele>
        <time>2011-08-14T11:25:42Z</time>
      </trkpt>
      <trkpt lat="59.5052869" lon="17.7552608">
        <ele>28.9769</ele>
        <time>2011-08-14T11:25:46Z</time>
      </trkpt>
      <trkpt lat="59.5051564" lon="17.7556292">
        <ele>28.0155</ele>
        <time>2011-08-14T11:25:49Z</time>
      </trkpt>
      <trkpt lat="59.505009" lon="17.7558178">
        <ele>27.0543</ele>
        <time>2011-08-14T11:25:51Z</time>
      </trkpt>
      <trkpt lat="59.5047347" lon="17.7560715">
        <ele>24.651</ele>
        <time>2011-08-14T11:25:54Z</time>
      </trkpt>
      <trkpt lat="59.5042645" lon="17.7561942">
        <ele>21.767</ele>
        <time>2011-08-14T11:25:58Z</time>
      </trkpt>
      <trkpt lat="59.5037628" lon="17.7562056">
        <ele>20.8057</ele>
        <time>2011-08-14T11:26:02Z</time>
      </trkpt>
      <trkpt lat="59.5031241" lon="17.7560682">
        <ele>20.325</ele>
        <time>2011-08-14T11:26:07Z</time>
      </trkpt>
      <trkpt lat="59.5029137" lon="17.755991">
        <ele>20.325</ele>
        <time>2011-08-14T11:26:09Z</time>
      </trkpt>
      <trkpt lat="59.5027262" lon="17.7562296">
        <ele>19.3638</ele>
        <time>2011-08-14T11:26:12Z</time>
      </trkpt>
      <trkpt lat="59.502686" lon="17.7563822">
        <ele>19.3638</ele>
        <time>2011-08-14T11:26:13Z</time>
      </trkpt>
      <trkpt lat="59.502458" lon="17.7573267">
        <ele>19.3638</ele>
        <time>2011-08-14T11:26:19Z</time>
      </trkpt>
      <trkpt lat="59.5022301" lon="17.7577161">
        <ele>19.8444</ele>
        <time>2011-08-14T11:26:23Z</time>
      </trkpt>
      <trkpt lat="59.5019119" lon="17.757842">
        <ele>18.8831</ele>
        <time>2011-08-14T11:26:27Z</time>
      </trkpt>
      <trkpt lat="59.5015641" lon="17.7579466">
        <ele>17.4412</ele>
        <time>2011-08-14T11:26:31Z</time>
      </trkpt>
      <trkpt lat="59.5012172" lon="17.7579134">
        <ele>15.999</ele>
        <time>2011-08-14T11:26:35Z</time>
      </trkpt>
      <trkpt lat="59.5005615" lon="17.7574824">
        <ele>15.999</ele>
        <time>2011-08-14T11:26:43Z</time>
      </trkpt>
      <trkpt lat="59.500484" lon="17.7574343">
        <ele>15.999</ele>
        <time>2011-08-14T11:26:44Z</time>
      </trkpt>
      <trkpt lat="59.5002938" lon="17.7571483">
        <ele>15.5184</ele>
        <time>2011-08-14T11:26:47Z</time>
      </trkpt>
      <trkpt lat="59.4999918" lon="17.7568123">
        <ele>15.0377</ele>
        <time>2011-08-14T11:26:51Z</time>
      </trkpt>
      <trkpt lat="59.4997348" lon="17.7568067">
        <ele>14.557</ele>
        <time>2011-08-14T11:26:54Z</time>
      </trkpt>
      <trkpt lat="59.4996515" lon="17.7568492">
        <ele>14.557</ele>
        <time>2011-08-14T11:26:55Z</time>
      </trkpt>
      <trkpt lat="59.4991641" lon="17.7569602">
        <ele>14.0764</ele>
        <time>2011-08-14T11:27:01Z</time>
      </trkpt>
      <trkpt lat="59.4986867" lon="17.7566974">
        <ele>14.0764</ele>
        <time>2011-08-14T11:27:07Z</time>
      </trkpt>
      <trkpt lat="59.4986121" lon="17.756605">
        <ele>14.0764</ele>
        <time>2011-08-14T11:27:08Z</time>
      </trkpt>
      <trkpt lat="59.4982031" lon="17.7560751">
        <ele>15.0377</ele>
        <time>2011-08-14T11:27:14Z</time>
      </trkpt>
      <trkpt lat="59.4981362" lon="17.755984">
        <ele>15.0377</ele>
        <time>2011-08-14T11:27:15Z</time>
      </trkpt>
      <trkpt lat="59.4975991" lon="17.7555077">
        <ele>14.557</ele>
        <time>2011-08-14T11:27:22Z</time>
      </trkpt>
      <trkpt lat="59.4971309" lon="17.7551552">
        <ele>13.5958</ele>
        <time>2011-08-14T11:27:28Z</time>
      </trkpt>
      <trkpt lat="59.4964978" lon="17.7547626">
        <ele>13.5958</ele>
        <time>2011-08-14T11:27:36Z</time>
      </trkpt>
      <trkpt lat="59.4960057" lon="17.7545945">
        <ele>13.5958</ele>
        <time>2011-08-14T11:27:42Z</time>
      </trkpt>
      <trkpt lat="59.4953637" lon="17.7543555">
        <ele>13.5958</ele>
        <time>2011-08-14T11:27:50Z</time>
      </trkpt>
      <trkpt lat="59.4947657" lon="17.7540829">
        <ele>14.0764</ele>
        <time>2011-08-14T11:27:58Z</time>
      </trkpt>
      <trkpt lat="59.4944741" lon="17.7536067">
        <ele>14.0764</ele>
        <time>2011-08-14T11:28:03Z</time>
      </trkpt>
      <trkpt lat="59.4943787" lon="17.7531334">
        <ele>13.5958</ele>
        <time>2011-08-14T11:28:06Z</time>
      </trkpt>
      <trkpt lat="59.4943653" lon="17.752955">
        <ele>13.1151</ele>
        <time>2011-08-14T11:28:07Z</time>
      </trkpt>
      <trkpt lat="59.4942844" lon="17.7515097">
        <ele>12.6344</ele>
        <time>2011-08-14T11:28:15Z</time>
      </trkpt>
      <trkpt lat="59.494172" lon="17.7510629">
        <ele>12.1538</ele>
        <time>2011-08-14T11:28:18Z</time>
      </trkpt>
      <trkpt lat="59.4941006" lon="17.7509772">
        <ele>12.1538</ele>
        <time>2011-08-14T11:28:19Z</time>
      </trkpt>
      <trkpt lat="59.4935142" lon="17.7503951">
        <ele>12.6344</ele>
        <time>2011-08-14T11:28:27Z</time>
      </trkpt>
      <trkpt lat="59.4928733" lon="17.7497363">
        <ele>12.6344</ele>
        <time>2011-08-14T11:28:35Z</time>
      </trkpt>
      <trkpt lat="59.4925502" lon="17.7494108">
        <ele>12.6344</ele>
        <time>2011-08-14T11:28:39Z</time>
      </trkpt>
      <trkpt lat="59.4922968" lon="17.7492215">
        <ele>12.1538</ele>
        <time>2011-08-14T11:28:42Z</time>
      </trkpt>
      <trkpt lat="59.4919922" lon="17.7488867">
        <ele>11.1925</ele>
        <time>2011-08-14T11:28:46Z</time>
      </trkpt>
      <trkpt lat="59.4918181" lon="17.7487724">
        <ele>10.7118</ele>
        <time>2011-08-14T11:28:48Z</time>
      </trkpt>
      <trkpt lat="59.4910846" lon="17.7482952">
        <ele>11.6732</ele>
        <time>2011-08-14T11:28:57Z</time>
      </trkpt>
      <trkpt lat="59.4905235" lon="17.7479025">
        <ele>12.1538</ele>
        <time>2011-08-14T11:29:04Z</time>
      </trkpt>
      <trkpt lat="59.4900516" lon="17.7476079">
        <ele>13.1151</ele>
        <time>2011-08-14T11:29:10Z</time>
      </trkpt>
      <trkpt lat="59.4893928" lon="17.7470644">
        <ele>15.0377</ele>
        <time>2011-08-14T11:29:19Z</time>
      </trkpt>
      <trkpt lat="59.4888567" lon="17.746609">
        <ele>14.557</ele>
        <time>2011-08-14T11:29:26Z</time>
      </trkpt>
      <trkpt lat="59.4885257" lon="17.7463216">
        <ele>13.5958</ele>
        <time>2011-08-14T11:29:30Z</time>
      </trkpt>
      <trkpt lat="59.4881618" lon="17.745909">
        <ele>13.1151</ele>
        <time>2011-08-14T11:29:35Z</time>
      </trkpt>
      <trkpt lat="59.4879652" lon="17.7459501">
        <ele>13.5958</ele>
        <time>2011-08-14T11:29:38Z</time>
      </trkpt>
      <trkpt lat="59.487873" lon="17.7463045">
        <ele>14.0764</ele>
        <time>2011-08-14T11:29:41Z</time>
      </trkpt>
      <trkpt lat="59.4877336" lon="17.7473187">
        <ele>15.999</ele>
        <time>2011-08-14T11:29:48Z</time>
      </trkpt>
      <trkpt lat="59.4876015" lon="17.7482447">
        <ele>15.999</ele>
        <time>2011-08-14T11:29:54Z</time>
      </trkpt>
      <trkpt lat="59.4874464" lon="17.7494014">
        <ele>16.9604</ele>
        <time>2011-08-14T11:30:02Z</time>
      </trkpt>
      <trkpt lat="59.4874299" lon="17.749528">
        <ele>16.9604</ele>
        <time>2011-08-14T11:30:03Z</time>
      </trkpt>
      <trkpt lat="59.4874" lon="17.7503224">
        <ele>19.3638</ele>
        <time>2011-08-14T11:30:10Z</time>
      </trkpt>
      <trkpt lat="59.4873979" lon="17.7505339">
        <ele>20.325</ele>
        <time>2011-08-14T11:30:12Z</time>
      </trkpt>
      <trkpt lat="59.4874622" lon="17.7509189">
        <ele>21.767</ele>
        <time>2011-08-14T11:30:16Z</time>
      </trkpt>
      <trkpt lat="59.4875388" lon="17.7511414">
        <ele>22.2476</ele>
        <time>2011-08-14T11:30:19Z</time>
      </trkpt>
      <trkpt lat="59.4875838" lon="17.7515377">
        <ele>23.209</ele>
        <time>2011-08-14T11:30:24Z</time>
      </trkpt>
      <trkpt lat="59.4875548" lon="17.7517145">
        <ele>24.1703</ele>
        <time>2011-08-14T11:30:26Z</time>
      </trkpt>
      <trkpt lat="59.487363" lon="17.7525484">
        <ele>25.1317</ele>
        <time>2011-08-14T11:30:35Z</time>
      </trkpt>
      <trkpt lat="59.4871753" lon="17.7531581">
        <ele>26.5736</ele>
        <time>2011-08-14T11:30:42Z</time>
      </trkpt>
      <trkpt lat="59.4871224" lon="17.7533163">
        <ele>27.5349</ele>
        <time>2011-08-14T11:30:44Z</time>
      </trkpt>
      <trkpt lat="59.4869405" lon="17.7537383">
        <ele>28.9769</ele>
        <time>2011-08-14T11:30:50Z</time>
      </trkpt>
      <trkpt lat="59.4868121" lon="17.7539701">
        <ele>30.4188</ele>
        <time>2011-08-14T11:30:54Z</time>
      </trkpt>
      <trkpt lat="59.4864949" lon="17.7541827">
        <ele>32.8223</ele>
        <time>2011-08-14T11:31:01Z</time>
      </trkpt>
      <trkpt lat="59.4860686" lon="17.7543994">
        <ele>34.7449</ele>
        <time>2011-08-14T11:31:11Z</time>
      </trkpt>
      <trkpt lat="59.4859433" lon="17.7544723">
        <ele>35.7061</ele>
        <time>2011-08-14T11:31:14Z</time>
      </trkpt>
      <trkpt lat="59.4858205" lon="17.7547049">
        <ele>36.6675</ele>
        <time>2011-08-14T11:31:19Z</time>
      </trkpt>
      <trkpt lat="59.4858086" lon="17.75479">
        <ele>36.6675</ele>
        <time>2011-08-14T11:31:20Z</time>
      </trkpt>
      <trkpt lat="59.4857658" lon="17.7551438">
        <ele>37.6287</ele>
        <time>2011-08-14T11:31:24Z</time>
      </trkpt>
      <trkpt lat="59.4856663" lon="17.755555">
        <ele>38.5901</ele>
        <time>2011-08-14T11:31:29Z</time>
      </trkpt>
      <trkpt lat="59.4854863" lon="17.7557585">
        <ele>39.0707</ele>
        <time>2011-08-14T11:31:33Z</time>
      </trkpt>
      <trkpt lat="59.4853709" lon="17.7557774">
        <ele>39.0707</ele>
        <time>2011-08-14T11:31:35Z</time>
      </trkpt>
      <trkpt lat="59.4848131" lon="17.7559534">
        <ele>39.5513</ele>
        <time>2011-08-14T11:31:44Z</time>
      </trkpt>
      <trkpt lat="59.4841309" lon="17.7561811">
        <ele>39.0707</ele>
        <time>2011-08-14T11:31:54Z</time>
      </trkpt>
      <trkpt lat="59.4836869" lon="17.7563362">
        <ele>36.6675</ele>
        <time>2011-08-14T11:32:00Z</time>
      </trkpt>
      <trkpt lat="59.4832656" lon="17.7565168">
        <ele>35.2255</ele>
        <time>2011-08-14T11:32:05Z</time>
      </trkpt>
      <trkpt lat="59.4828146" lon="17.756762">
        <ele>33.3029</ele>
        <time>2011-08-14T11:32:10Z</time>
      </trkpt>
      <trkpt lat="59.4823247" lon="17.7570878">
        <ele>29.9381</ele>
        <time>2011-08-14T11:32:15Z</time>
      </trkpt>
      <trkpt lat="59.4818583" lon="17.7572536">
        <ele>28.0155</ele>
        <time>2011-08-14T11:32:19Z</time>
      </trkpt>
      <trkpt lat="59.4812659" lon="17.7572224">
        <ele>25.1317</ele>
        <time>2011-08-14T11:32:24Z</time>
      </trkpt>
      <trkpt lat="59.4809191" lon="17.7571652">
        <ele>23.209</ele>
        <time>2011-08-14T11:32:27Z</time>
      </trkpt>
      <trkpt lat="59.4805759" lon="17.7573397">
        <ele>21.767</ele>
        <time>2011-08-14T11:32:31Z</time>
      </trkpt>
      <trkpt lat="59.480494" lon="17.7576402">
        <ele>21.767</ele>
        <time>2011-08-14T11:32:35Z</time>
      </trkpt>
      <trkpt lat="59.4805856" lon="17.7579439">
        <ele>21.2864</ele>
        <time>2011-08-14T11:32:38Z</time>
      </trkpt>
      <trkpt lat="59.4808658" lon="17.7586357">
        <ele>20.8057</ele>
        <time>2011-08-14T11:32:44Z</time>
      </trkpt>
      <trkpt lat="59.4812039" lon="17.7592385">
        <ele>18.8831</ele>
        <time>2011-08-14T11:32:49Z</time>
      </trkpt>
      <trkpt lat="59.4813752" lon="17.7594532">
        <ele>17.9218</ele>
        <time>2011-08-14T11:32:51Z</time>
      </trkpt>
      <trkpt lat="59.4820211" lon="17.7598925">
        <ele>14.0764</ele>
        <time>2011-08-14T11:32:57Z</time>
      </trkpt>
      <trkpt lat="59.4825913" lon="17.7600973">
        <ele>11.6732</ele>
        <time>2011-08-14T11:33:02Z</time>
      </trkpt>
      <trkpt lat="59.4830674" lon="17.7606026">
        <ele>10.2312</ele>
        <time>2011-08-14T11:33:07Z</time>
      </trkpt>
      <trkpt lat="59.4833278" lon="17.7611785">
        <ele>9.2699</ele>
        <time>2011-08-14T11:33:11Z</time>
      </trkpt>
      <trkpt lat="59.4833777" lon="17.7613346">
        <ele>9.2699</ele>
        <time>2011-08-14T11:33:12Z</time>
      </trkpt>
      <trkpt lat="59.4835646" lon="17.7621307">
        <ele>8.78918</ele>
        <time>2011-08-14T11:33:17Z</time>
      </trkpt>
      <trkpt lat="59.483587" lon="17.7629127">
        <ele>9.2699</ele>
        <time>2011-08-14T11:33:22Z</time>
      </trkpt>
      <trkpt lat="59.4835015" lon="17.7635707">
        <ele>11.1925</ele>
        <time>2011-08-14T11:33:27Z</time>
      </trkpt>
      <trkpt lat="59.4834159" lon="17.7639721">
        <ele>12.1538</ele>
        <time>2011-08-14T11:33:31Z</time>
      </trkpt>
      <trkpt lat="59.4833554" lon="17.7644861">
        <ele>14.0764</ele>
        <time>2011-08-14T11:33:36Z</time>
      </trkpt>
      <trkpt lat="59.4832325" lon="17.7653929">
        <ele>16.4797</ele>
        <time>2011-08-14T11:33:45Z</time>
      </trkpt>
      <trkpt lat="59.4831373" lon="17.7661101">
        <ele>18.4023</ele>
        <time>2011-08-14T11:33:53Z</time>
      </trkpt>
      <trkpt lat="59.4830459" lon="17.7668513">
        <ele>20.325</ele>
        <time>2011-08-14T11:34:02Z</time>
      </trkpt>
      <trkpt lat="59.4830369" lon="17.7669306">
        <ele>20.325</ele>
        <time>2011-08-14T11:34:03Z</time>
      </trkpt>
      <trkpt lat="59.4830037" lon="17.7671704">
        <ele>20.8057</ele>
        <time>2011-08-14T11:34:06Z</time>
      </trkpt>
      <trkpt lat="59.4829087" lon="17.7677857">
        <ele>22.2476</ele>
        <time>2011-08-14T11:34:14Z</time>
      </trkpt>
      <trkpt lat="59.4828945" lon="17.7678586">
        <ele>22.2476</ele>
        <time>2011-08-14T11:34:15Z</time>
      </trkpt>
      <trkpt lat="59.4828384" lon="17.7684756">
        <ele>26.5736</ele>
        <time>2011-08-14T11:34:24Z</time>
      </trkpt>
      <trkpt lat="59.4827913" lon="17.7688278">
        <ele>28.0155</ele>
        <time>2011-08-14T11:34:30Z</time>
      </trkpt>
      <trkpt lat="59.4827396" lon="17.7691944">
        <ele>28.9769</ele>
        <time>2011-08-14T11:34:36Z</time>
      </trkpt>
      <trkpt lat="59.4826788" lon="17.7696565">
        <ele>30.8995</ele>
        <time>2011-08-14T11:34:42Z</time>
      </trkpt>
      <trkpt lat="59.4826199" lon="17.770153">
        <ele>30.8995</ele>
        <time>2011-08-14T11:34:48Z</time>
      </trkpt>
      <trkpt lat="59.4825369" lon="17.7707954">
        <ele>31.3801</ele>
        <time>2011-08-14T11:34:55Z</time>
      </trkpt>
      <trkpt lat="59.4824293" lon="17.7715989">
        <ele>32.3416</ele>
        <time>2011-08-14T11:35:03Z</time>
      </trkpt>
      <trkpt lat="59.4823381" lon="17.772384">
        <ele>33.3029</ele>
        <time>2011-08-14T11:35:11Z</time>
      </trkpt>
      <trkpt lat="59.4822415" lon="17.7732238">
        <ele>35.7061</ele>
        <time>2011-08-14T11:35:19Z</time>
      </trkpt>
      <trkpt lat="59.4821118" lon="17.7743543">
        <ele>35.7061</ele>
        <time>2011-08-14T11:35:28Z</time>
      </trkpt>
      <trkpt lat="59.4819842" lon="17.7754051">
        <ele>34.2642</ele>
        <time>2011-08-14T11:35:36Z</time>
      </trkpt>
      <trkpt lat="59.4818719" lon="17.7761329">
        <ele>32.3416</ele>
        <time>2011-08-14T11:35:41Z</time>
      </trkpt>
      <trkpt lat="59.4816739" lon="17.7771023">
        <ele>29.9381</ele>
        <time>2011-08-14T11:35:47Z</time>
      </trkpt>
      <trkpt lat="59.4813465" lon="17.7784882">
        <ele>26.5736</ele>
        <time>2011-08-14T11:35:55Z</time>
      </trkpt>
      <trkpt lat="59.4809254" lon="17.7802331">
        <ele>22.7283</ele>
        <time>2011-08-14T11:36:05Z</time>
      </trkpt>
      <trkpt lat="59.4805053" lon="17.7819404">
        <ele>19.3638</ele>
        <time>2011-08-14T11:36:15Z</time>
      </trkpt>
      <trkpt lat="59.4801857" lon="17.783003">
        <ele>17.9218</ele>
        <time>2011-08-14T11:36:22Z</time>
      </trkpt>
      <trkpt lat="59.4798013" lon="17.7839073">
        <ele>16.9604</ele>
        <time>2011-08-14T11:36:29Z</time>
      </trkpt>
      <trkpt lat="59.4793838" lon="17.7846191">
        <ele>15.999</ele>
        <time>2011-08-14T11:36:35Z</time>
      </trkpt>
      <trkpt lat="59.4789651" lon="17.7851306">
        <ele>14.0764</ele>
        <time>2011-08-14T11:36:40Z</time>
      </trkpt>
      <trkpt lat="59.4784089" lon="17.7855852">
        <ele>12.1538</ele>
        <time>2011-08-14T11:36:46Z</time>
      </trkpt>
      <trkpt lat="59.4777431" lon="17.7859342">
        <ele>10.7118</ele>
        <time>2011-08-14T11:36:53Z</time>
      </trkpt>
      <trkpt lat="59.4770432" lon="17.7861587">
        <ele>9.2699</ele>
        <time>2011-08-14T11:37:00Z</time>
      </trkpt>
      <trkpt lat="59.4762861" lon="17.7863736">
        <ele>9.75061</ele>
        <time>2011-08-14T11:37:08Z</time>
      </trkpt>
      <trkpt lat="59.4753853" lon="17.7866748">
        <ele>10.2312</ele>
        <time>2011-08-14T11:37:18Z</time>
      </trkpt>
      <trkpt lat="59.4747956" lon="17.7869526">
        <ele>9.75061</ele>
        <time>2011-08-14T11:37:25Z</time>
      </trkpt>
      <trkpt lat="59.4743633" lon="17.787265">
        <ele>11.1925</ele>
        <time>2011-08-14T11:37:31Z</time>
      </trkpt>
      <trkpt lat="59.4739665" lon="17.787653">
        <ele>14.0764</ele>
        <time>2011-08-14T11:37:38Z</time>
      </trkpt>
      <trkpt lat="59.4737819" lon="17.7879486">
        <ele>15.0377</ele>
        <time>2011-08-14T11:37:42Z</time>
      </trkpt>
      <trkpt lat="59.4737122" lon="17.7881279">
        <ele>15.999</ele>
        <time>2011-08-14T11:37:44Z</time>
      </trkpt>
      <trkpt lat="59.4735412" lon="17.788992">
        <ele>14.557</ele>
        <time>2011-08-14T11:37:52Z</time>
      </trkpt>
      <trkpt lat="59.4733563" lon="17.7897532">
        <ele>11.6732</ele>
        <time>2011-08-14T11:37:59Z</time>
      </trkpt>
      <trkpt lat="59.473175" lon="17.7903223">
        <ele>9.2699</ele>
        <time>2011-08-14T11:38:06Z</time>
      </trkpt>
      <trkpt lat="59.4730651" lon="17.7906678">
        <ele>8.30859</ele>
        <time>2011-08-14T11:38:12Z</time>
      </trkpt>
      <trkpt lat="59.4730238" lon="17.7908445">
        <ele>7.34717</ele>
        <time>2011-08-14T11:38:17Z</time>
      </trkpt>
      <trkpt lat="59.4730082" lon="17.7909041">
        <ele>7.34717</ele>
        <time>2011-08-14T11:38:23Z</time>
      </trkpt>
      <trkpt lat="59.4730087" lon="17.7909093">
        <ele>6.38586</ele>
        <time>2011-08-14T11:38:30Z</time>
      </trkpt>
      <trkpt lat="59.4730253" lon="17.7909116">
        <ele>8.30859</ele>
        <time>2011-08-14T11:38:43Z</time>
      </trkpt>
      <trkpt lat="59.473046" lon="17.7909036">
        <ele>11.1925</ele>
        <time>2011-08-14T11:38:53Z</time>
      </trkpt>
      <trkpt lat="59.4730682" lon="17.7909081">
        <ele>14.0764</ele>
        <time>2011-08-14T11:39:05Z</time>
      </trkpt>
      <trkpt lat="59.4730594" lon="17.7909382">
        <ele>13.5958</ele>
        <time>2011-08-14T11:39:08Z</time>
      </trkpt>
      <trkpt lat="59.4730013" lon="17.7912129">
        <ele>11.6732</ele>
        <time>2011-08-14T11:39:13Z</time>
      </trkpt>
      <trkpt lat="59.4729056" lon="17.7917515">
        <ele>9.2699</ele>
        <time>2011-08-14T11:39:18Z</time>
      </trkpt>
      <trkpt lat="59.4727352" lon="17.7925933">
        <ele>9.2699</ele>
        <time>2011-08-14T11:39:24Z</time>
      </trkpt>
      <trkpt lat="59.4725483" lon="17.7936985">
        <ele>8.78918</ele>
        <time>2011-08-14T11:39:31Z</time>
      </trkpt>
      <trkpt lat="59.4724542" lon="17.7941492">
        <ele>8.30859</ele>
        <time>2011-08-14T11:39:34Z</time>
      </trkpt>
      <trkpt lat="59.4722431" lon="17.7946497">
        <ele>7.82788</ele>
        <time>2011-08-14T11:39:38Z</time>
      </trkpt>
      <trkpt lat="59.472099" lon="17.7947936">
        <ele>7.82788</ele>
        <time>2011-08-14T11:39:40Z</time>
      </trkpt>
      <trkpt lat="59.4714842" lon="17.7952606">
        <ele>7.82788</ele>
        <time>2011-08-14T11:39:49Z</time>
      </trkpt>
      <trkpt lat="59.4710392" lon="17.7957707">
        <ele>8.30859</ele>
        <time>2011-08-14T11:39:56Z</time>
      </trkpt>
      <trkpt lat="59.4705472" lon="17.796156">
        <ele>8.30859</ele>
        <time>2011-08-14T11:40:03Z</time>
      </trkpt>
      <trkpt lat="59.4700722" lon="17.7966208">
        <ele>8.30859</ele>
        <time>2011-08-14T11:40:10Z</time>
      </trkpt>
      <trkpt lat="59.4697168" lon="17.7970942">
        <ele>9.2699</ele>
        <time>2011-08-14T11:40:16Z</time>
      </trkpt>
      <trkpt lat="59.4694188" lon="17.7974439">
        <ele>8.78918</ele>
        <time>2011-08-14T11:40:21Z</time>
      </trkpt>
      <trkpt lat="59.4692245" lon="17.7976848">
        <ele>7.82788</ele>
        <time>2011-08-14T11:40:24Z</time>
      </trkpt>
      <trkpt lat="59.4689597" lon="17.7982773">
        <ele>7.34717</ele>
        <time>2011-08-14T11:40:29Z</time>
      </trkpt>
      <trkpt lat="59.4688936" lon="17.7989141">
        <ele>6.38586</ele>
        <time>2011-08-14T11:40:33Z</time>
      </trkpt>
      <trkpt lat="59.4689908" lon="17.7995854">
        <ele>3.98267</ele>
        <time>2011-08-14T11:40:37Z</time>
      </trkpt>
      <trkpt lat="59.4690433" lon="17.7997309">
        <ele>3.50195</ele>
        <time>2011-08-14T11:40:38Z</time>
      </trkpt>
      <trkpt lat="59.4694795" lon="17.8006177">
        <ele>3.98267</ele>
        <time>2011-08-14T11:40:45Z</time>
      </trkpt>
      <trkpt lat="59.469866" lon="17.8014917">
        <ele>5.90527</ele>
        <time>2011-08-14T11:40:53Z</time>
      </trkpt>
      <trkpt lat="59.4700092" lon="17.8019335">
        <ele>7.82788</ele>
        <time>2011-08-14T11:40:57Z</time>
      </trkpt>
      <trkpt lat="59.4700771" lon="17.8023968">
        <ele>10.2312</ele>
        <time>2011-08-14T11:41:01Z</time>
      </trkpt>
      <trkpt lat="59.4700854" lon="17.8027478">
        <ele>11.1925</ele>
        <time>2011-08-14T11:41:04Z</time>
      </trkpt>
      <trkpt lat="59.469999" lon="17.8033859">
        <ele>12.6344</ele>
        <time>2011-08-14T11:41:10Z</time>
      </trkpt>
      <trkpt lat="59.4698157" lon="17.8041667">
        <ele>14.557</ele>
        <time>2011-08-14T11:41:18Z</time>
      </trkpt>
      <trkpt lat="59.4696332" lon="17.8048681">
        <ele>15.999</ele>
        <time>2011-08-14T11:41:26Z</time>
      </trkpt>
      <trkpt lat="59.4694798" lon="17.8055211">
        <ele>18.4023</ele>
        <time>2011-08-14T11:41:34Z</time>
      </trkpt>
      <trkpt lat="59.4693982" lon="17.8058989">
        <ele>21.2864</ele>
        <time>2011-08-14T11:41:39Z</time>
      </trkpt>
      <trkpt lat="59.4693365" lon="17.8061724">
        <ele>23.209</ele>
        <time>2011-08-14T11:41:43Z</time>
      </trkpt>
      <trkpt lat="59.4692112" lon="17.8066856">
        <ele>26.0929</ele>
        <time>2011-08-14T11:41:51Z</time>
      </trkpt>
      <trkpt lat="59.4691255" lon="17.807139">
        <ele>26.0929</ele>
        <time>2011-08-14T11:41:56Z</time>
      </trkpt>
      <trkpt lat="59.4690784" lon="17.8074696">
        <ele>26.0929</ele>
        <time>2011-08-14T11:42:00Z</time>
      </trkpt>
      <trkpt lat="59.4689843" lon="17.807619">
        <ele>25.6123</ele>
        <time>2011-08-14T11:42:04Z</time>
      </trkpt>
      <trkpt lat="59.4689593" lon="17.8076171">
        <ele>26.0929</ele>
        <time>2011-08-14T11:42:05Z</time>
      </trkpt>
      <trkpt lat="59.4687024" lon="17.8075094">
        <ele>23.209</ele>
        <time>2011-08-14T11:42:12Z</time>
      </trkpt>
      <trkpt lat="59.4684523" lon="17.8074401">
        <ele>21.2864</ele>
        <time>2011-08-14T11:42:18Z</time>
      </trkpt>
      <trkpt lat="59.4681202" lon="17.8075582">
        <ele>19.8444</ele>
        <time>2011-08-14T11:42:25Z</time>
      </trkpt>
      <trkpt lat="59.4677731" lon="17.8077938">
        <ele>19.3638</ele>
        <time>2011-08-14T11:42:32Z</time>
      </trkpt>
      <trkpt lat="59.4676165" lon="17.8078963">
        <ele>18.8831</ele>
        <time>2011-08-14T11:42:35Z</time>
      </trkpt>
      <trkpt lat="59.4674003" lon="17.808145">
        <ele>18.8831</ele>
        <time>2011-08-14T11:42:40Z</time>
      </trkpt>
      <trkpt lat="59.4672244" lon="17.8083776">
        <ele>19.8444</ele>
        <time>2011-08-14T11:42:46Z</time>
      </trkpt>
      <trkpt lat="59.4669802" lon="17.8086848">
        <ele>20.8057</ele>
        <time>2011-08-14T11:42:54Z</time>
      </trkpt>
      <trkpt lat="59.4667982" lon="17.8088848">
        <ele>21.767</ele>
        <time>2011-08-14T11:43:00Z</time>
      </trkpt>
      <trkpt lat="59.4666473" lon="17.8090506">
        <ele>22.2476</ele>
        <time>2011-08-14T11:43:05Z</time>
      </trkpt>
      <trkpt lat="59.4664637" lon="17.8090759">
        <ele>21.2864</ele>
        <time>2011-08-14T11:43:10Z</time>
      </trkpt>
      <trkpt lat="59.466203" lon="17.809108">
        <ele>21.767</ele>
        <time>2011-08-14T11:43:16Z</time>
      </trkpt>
      <trkpt lat="59.4661113" lon="17.8091007">
        <ele>20.8057</ele>
        <time>2011-08-14T11:43:18Z</time>
      </trkpt>
      <trkpt lat="59.4658751" lon="17.8089319">
        <ele>20.325</ele>
        <time>2011-08-14T11:43:23Z</time>
      </trkpt>
      <trkpt lat="59.4653797" lon="17.808746">
        <ele>19.8444</ele>
        <time>2011-08-14T11:43:33Z</time>
      </trkpt>
      <trkpt lat="59.4651774" lon="17.8085683">
        <ele>20.325</ele>
        <time>2011-08-14T11:43:38Z</time>
      </trkpt>
      <trkpt lat="59.4651216" lon="17.8084715">
        <ele>20.8057</ele>
        <time>2011-08-14T11:43:40Z</time>
      </trkpt>
      <trkpt lat="59.4649738" lon="17.8083522">
        <ele>21.2864</ele>
        <time>2011-08-14T11:43:44Z</time>
      </trkpt>
      <trkpt lat="59.4648794" lon="17.8083463">
        <ele>20.8057</ele>
        <time>2011-08-14T11:43:46Z</time>
      </trkpt>
      <trkpt lat="59.4646553" lon="17.8084193">
        <ele>22.7283</ele>
        <time>2011-08-14T11:43:50Z</time>
      </trkpt>
      <trkpt lat="59.464429" lon="17.8083692">
        <ele>25.1317</ele>
        <time>2011-08-14T11:43:54Z</time>
      </trkpt>
      <trkpt lat="59.4640811" lon="17.8080957">
        <ele>26.0929</ele>
        <time>2011-08-14T11:44:00Z</time>
      </trkpt>
      <trkpt lat="59.4637376" lon="17.807804">
        <ele>26.0929</ele>
        <time>2011-08-14T11:44:06Z</time>
      </trkpt>
      <trkpt lat="59.463382" lon="17.8075139">
        <ele>26.5736</ele>
        <time>2011-08-14T11:44:12Z</time>
      </trkpt>
      <trkpt lat="59.4632816" lon="17.8073892">
        <ele>26.5736</ele>
        <time>2011-08-14T11:44:14Z</time>
      </trkpt>
      <trkpt lat="59.4630388" lon="17.8069721">
        <ele>28.0155</ele>
        <time>2011-08-14T11:44:20Z</time>
      </trkpt>
      <trkpt lat="59.462894" lon="17.806757">
        <ele>28.4962</ele>
        <time>2011-08-14T11:44:24Z</time>
      </trkpt>
      <trkpt lat="59.462693" lon="17.8066807">
        <ele>28.9769</ele>
        <time>2011-08-14T11:44:28Z</time>
      </trkpt>
      <trkpt lat="59.4625815" lon="17.8067355">
        <ele>28.0155</ele>
        <time>2011-08-14T11:44:30Z</time>
      </trkpt>
      <trkpt lat="59.4622579" lon="17.8068008">
        <ele>27.0543</ele>
        <time>2011-08-14T11:44:35Z</time>
      </trkpt>
      <trkpt lat="59.4619973" lon="17.8068328">
        <ele>24.651</ele>
        <time>2011-08-14T11:44:40Z</time>
      </trkpt>
      <trkpt lat="59.461779" lon="17.8068995">
        <ele>23.209</ele>
        <time>2011-08-14T11:44:45Z</time>
      </trkpt>
      <trkpt lat="59.4616032" lon="17.8068085">
        <ele>22.2476</ele>
        <time>2011-08-14T11:44:50Z</time>
      </trkpt>
      <trkpt lat="59.4613445" lon="17.8066183">
        <ele>23.209</ele>
        <time>2011-08-14T11:44:55Z</time>
      </trkpt>
      <trkpt lat="59.4612736" lon="17.8066132">
        <ele>23.6896</ele>
        <time>2011-08-14T11:44:56Z</time>
      </trkpt>
      <trkpt lat="59.4610804" lon="17.8066412">
        <ele>23.6896</ele>
        <time>2011-08-14T11:44:59Z</time>
      </trkpt>
      <trkpt lat="59.4606401" lon="17.8066338">
        <ele>25.1317</ele>
        <time>2011-08-14T11:45:06Z</time>
      </trkpt>
      <trkpt lat="59.4605193" lon="17.8066261">
        <ele>25.6123</ele>
        <time>2011-08-14T11:45:08Z</time>
      </trkpt>
      <trkpt lat="59.4599496" lon="17.8065551">
        <ele>28.4962</ele>
        <time>2011-08-14T11:45:17Z</time>
      </trkpt>
      <trkpt lat="59.4595614" lon="17.8065006">
        <ele>29.9381</ele>
        <time>2011-08-14T11:45:23Z</time>
      </trkpt>
      <trkpt lat="59.4590673" lon="17.8063978">
        <ele>29.4575</ele>
        <time>2011-08-14T11:45:30Z</time>
      </trkpt>
      <trkpt lat="59.4585974" lon="17.8062692">
        <ele>27.5349</ele>
        <time>2011-08-14T11:45:36Z</time>
      </trkpt>
      <trkpt lat="59.4580744" lon="17.8061098">
        <ele>24.1703</ele>
        <time>2011-08-14T11:45:42Z</time>
      </trkpt>
      <trkpt lat="59.4576698" lon="17.8059039">
        <ele>23.209</ele>
        <time>2011-08-14T11:45:47Z</time>
      </trkpt>
      <trkpt lat="59.457372" lon="17.8057865">
        <ele>23.6896</ele>
        <time>2011-08-14T11:45:52Z</time>
      </trkpt>
      <trkpt lat="59.4572696" lon="17.8057404">
        <ele>24.1703</ele>
        <time>2011-08-14T11:45:54Z</time>
      </trkpt>
      <trkpt lat="59.4572135" lon="17.8055942">
        <ele>23.6896</ele>
        <time>2011-08-14T11:45:58Z</time>
      </trkpt>
      <trkpt lat="59.4572131" lon="17.8055823">
        <ele>25.1317</ele>
        <time>2011-08-14T11:46:02Z</time>
      </trkpt>
      <trkpt lat="59.457214" lon="17.805583">
        <ele>25.1317</ele>
        <time>2011-08-14T11:46:03Z</time>
      </trkpt>
    </trkseg>
  </trk>
</gpx>